<?xml version="1.0" encoding="UTF-8" standalone="no" ?>
<gpx xmlns="http://www.topografix.com/GPX/1/1" xmlns:xsi="http://www.w3.org/2001/XMLSchema-instance" xsi:schemaLocation="http://www.topografix.com/GPX/1/1 http://www.topografix.com/GPX/1/1/gpx.xsd" version="1.1" creator="VisuGPX - https://www.visugpx.com">
  <metadata>
    <name>col d'aoube</name>
    <desc><![CDATA[le col d'aoube avec une neige de printemps]]></desc>
  </metadata>
  <trk>
    <name><![CDATA[18 févr. 2017]]></name>
    <cmt><![CDATA[09:13:49]]></cmt>
    <desc><![CDATA[comment ...]]></desc>
    <trkseg>
      <trkpt lat="42.9055" lon="0.1037">
        <ele>1505</ele>
        <time>2017-02-18T08:13:45Z</time>
      </trkpt>
      <trkpt lat="42.9055" lon="0.1037">
        <ele>1505</ele>
        <time>2017-02-18T08:13:46Z</time>
      </trkpt>
      <trkpt lat="42.90552" lon="0.10371">
        <ele>1504</ele>
        <time>2017-02-18T08:18:23Z</time>
      </trkpt>
      <trkpt lat="42.90555" lon="0.10372">
        <ele>1503</ele>
        <time>2017-02-18T08:19:53Z</time>
      </trkpt>
      <trkpt lat="42.90556" lon="0.10376">
        <ele>1502</ele>
        <time>2017-02-18T08:20:16Z</time>
      </trkpt>
      <trkpt lat="42.90552" lon="0.10393">
        <ele>1503</ele>
        <time>2017-02-18T08:20:34Z</time>
      </trkpt>
      <trkpt lat="42.90546" lon="0.1041">
        <ele>1503</ele>
        <time>2017-02-18T08:20:46Z</time>
      </trkpt>
      <trkpt lat="42.90531" lon="0.10433">
        <ele>1504</ele>
        <time>2017-02-18T08:21:07Z</time>
      </trkpt>
      <trkpt lat="42.90524" lon="0.10446">
        <ele>1504</ele>
        <time>2017-02-18T08:21:19Z</time>
      </trkpt>
      <trkpt lat="42.90523" lon="0.1045">
        <ele>1504</ele>
        <time>2017-02-18T08:21:23Z</time>
      </trkpt>
      <trkpt lat="42.90525" lon="0.10455">
        <ele>1505</ele>
        <time>2017-02-18T08:21:27Z</time>
      </trkpt>
      <trkpt lat="42.90528" lon="0.10461">
        <ele>1506</ele>
        <time>2017-02-18T08:21:34Z</time>
      </trkpt>
      <trkpt lat="42.9053" lon="0.10463">
        <ele>1506</ele>
        <time>2017-02-18T08:21:38Z</time>
      </trkpt>
      <trkpt lat="42.90533" lon="0.10462">
        <ele>1507</ele>
        <time>2017-02-18T08:21:41Z</time>
      </trkpt>
      <trkpt lat="42.90542" lon="0.10457">
        <ele>1507</ele>
        <time>2017-02-18T08:21:52Z</time>
      </trkpt>
      <trkpt lat="42.90543" lon="0.10457">
        <ele>1510</ele>
        <time>2017-02-18T08:23:37Z</time>
      </trkpt>
      <trkpt lat="42.90545" lon="0.10455">
        <ele>1511</ele>
        <time>2017-02-18T08:24:26Z</time>
      </trkpt>
      <trkpt lat="42.90548" lon="0.10453">
        <ele>1511</ele>
        <time>2017-02-18T08:24:29Z</time>
      </trkpt>
      <trkpt lat="42.90561" lon="0.10434">
        <ele>1509</ele>
        <time>2017-02-18T08:24:49Z</time>
      </trkpt>
      <trkpt lat="42.90577" lon="0.10409">
        <ele>1510</ele>
        <time>2017-02-18T08:25:17Z</time>
      </trkpt>
      <trkpt lat="42.90592" lon="0.10378">
        <ele>1511</ele>
        <time>2017-02-18T08:25:47Z</time>
      </trkpt>
      <trkpt lat="42.90604" lon="0.10348">
        <ele>1514</ele>
        <time>2017-02-18T08:26:14Z</time>
      </trkpt>
      <trkpt lat="42.90615" lon="0.10311">
        <ele>1516</ele>
        <time>2017-02-18T08:26:46Z</time>
      </trkpt>
      <trkpt lat="42.9063" lon="0.10277">
        <ele>1517</ele>
        <time>2017-02-18T08:27:17Z</time>
      </trkpt>
      <trkpt lat="42.90634" lon="0.1026">
        <ele>1519</ele>
        <time>2017-02-18T08:27:32Z</time>
      </trkpt>
      <trkpt lat="42.90638" lon="0.10222">
        <ele>1522</ele>
        <time>2017-02-18T08:28:02Z</time>
      </trkpt>
      <trkpt lat="42.90641" lon="0.10202">
        <ele>1522</ele>
        <time>2017-02-18T08:28:18Z</time>
      </trkpt>
      <trkpt lat="42.90645" lon="0.10197">
        <ele>1522</ele>
        <time>2017-02-18T08:28:25Z</time>
      </trkpt>
      <trkpt lat="42.90651" lon="0.10197">
        <ele>1522</ele>
        <time>2017-02-18T08:28:33Z</time>
      </trkpt>
      <trkpt lat="42.90654" lon="0.10199">
        <ele>1523</ele>
        <time>2017-02-18T08:28:37Z</time>
      </trkpt>
      <trkpt lat="42.90658" lon="0.10206">
        <ele>1524</ele>
        <time>2017-02-18T08:28:44Z</time>
      </trkpt>
      <trkpt lat="42.90659" lon="0.10215">
        <ele>1525</ele>
        <time>2017-02-18T08:28:52Z</time>
      </trkpt>
      <trkpt lat="42.90655" lon="0.10237">
        <ele>1528</ele>
        <time>2017-02-18T08:29:11Z</time>
      </trkpt>
      <trkpt lat="42.9065" lon="0.10275">
        <ele>1530</ele>
        <time>2017-02-18T08:29:42Z</time>
      </trkpt>
      <trkpt lat="42.90647" lon="0.10313">
        <ele>1535</ele>
        <time>2017-02-18T08:30:15Z</time>
      </trkpt>
      <trkpt lat="42.90642" lon="0.10354">
        <ele>1537</ele>
        <time>2017-02-18T08:30:47Z</time>
      </trkpt>
      <trkpt lat="42.90638" lon="0.1039">
        <ele>1538</ele>
        <time>2017-02-18T08:31:18Z</time>
      </trkpt>
      <trkpt lat="42.90634" lon="0.10427">
        <ele>1540</ele>
        <time>2017-02-18T08:31:49Z</time>
      </trkpt>
      <trkpt lat="42.9063" lon="0.10465">
        <ele>1543</ele>
        <time>2017-02-18T08:32:22Z</time>
      </trkpt>
      <trkpt lat="42.90629" lon="0.10479">
        <ele>1544</ele>
        <time>2017-02-18T08:32:34Z</time>
      </trkpt>
      <trkpt lat="42.90628" lon="0.10514">
        <ele>1546</ele>
        <time>2017-02-18T08:33:04Z</time>
      </trkpt>
      <trkpt lat="42.90627" lon="0.10549">
        <ele>1548</ele>
        <time>2017-02-18T08:33:33Z</time>
      </trkpt>
      <trkpt lat="42.90621" lon="0.10571">
        <ele>1549</ele>
        <time>2017-02-18T08:33:53Z</time>
      </trkpt>
      <trkpt lat="42.90616" lon="0.106">
        <ele>1551</ele>
        <time>2017-02-18T08:34:19Z</time>
      </trkpt>
      <trkpt lat="42.90621" lon="0.10636">
        <ele>1554</ele>
        <time>2017-02-18T08:34:52Z</time>
      </trkpt>
      <trkpt lat="42.90627" lon="0.10665">
        <ele>1555</ele>
        <time>2017-02-18T08:35:18Z</time>
      </trkpt>
      <trkpt lat="42.90632" lon="0.10703">
        <ele>1558</ele>
        <time>2017-02-18T08:35:50Z</time>
      </trkpt>
      <trkpt lat="42.90633" lon="0.10738">
        <ele>1561</ele>
        <time>2017-02-18T08:36:20Z</time>
      </trkpt>
      <trkpt lat="42.90632" lon="0.10775">
        <ele>1565</ele>
        <time>2017-02-18T08:36:50Z</time>
      </trkpt>
      <trkpt lat="42.90633" lon="0.10802">
        <ele>1567</ele>
        <time>2017-02-18T08:37:13Z</time>
      </trkpt>
      <trkpt lat="42.90636" lon="0.10838">
        <ele>1570</ele>
        <time>2017-02-18T08:37:45Z</time>
      </trkpt>
      <trkpt lat="42.90641" lon="0.10863">
        <ele>1571</ele>
        <time>2017-02-18T08:38:08Z</time>
      </trkpt>
      <trkpt lat="42.90644" lon="0.109">
        <ele>1574</ele>
        <time>2017-02-18T08:38:41Z</time>
      </trkpt>
      <trkpt lat="42.90646" lon="0.1092">
        <ele>1577</ele>
        <time>2017-02-18T08:38:59Z</time>
      </trkpt>
      <trkpt lat="42.90653" lon="0.10956">
        <ele>1578</ele>
        <time>2017-02-18T08:39:31Z</time>
      </trkpt>
      <trkpt lat="42.90658" lon="0.10981">
        <ele>1579</ele>
        <time>2017-02-18T08:39:55Z</time>
      </trkpt>
      <trkpt lat="42.9066" lon="0.10988">
        <ele>1579</ele>
        <time>2017-02-18T08:40:02Z</time>
      </trkpt>
      <trkpt lat="42.90663" lon="0.10995">
        <ele>1580</ele>
        <time>2017-02-18T08:40:08Z</time>
      </trkpt>
      <trkpt lat="42.90666" lon="0.11002">
        <ele>1574</ele>
        <time>2017-02-18T08:40:14Z</time>
      </trkpt>
      <trkpt lat="42.90676" lon="0.11033">
        <ele>1585</ele>
        <time>2017-02-18T08:40:45Z</time>
      </trkpt>
      <trkpt lat="42.90686" lon="0.11065">
        <ele>1587</ele>
        <time>2017-02-18T08:41:15Z</time>
      </trkpt>
      <trkpt lat="42.90693" lon="0.11097">
        <ele>1589</ele>
        <time>2017-02-18T08:41:45Z</time>
      </trkpt>
      <trkpt lat="42.90701" lon="0.11132">
        <ele>1593</ele>
        <time>2017-02-18T08:42:16Z</time>
      </trkpt>
      <trkpt lat="42.90705" lon="0.11152">
        <ele>1595</ele>
        <time>2017-02-18T08:42:33Z</time>
      </trkpt>
      <trkpt lat="42.90715" lon="0.11186">
        <ele>1598</ele>
        <time>2017-02-18T08:43:05Z</time>
      </trkpt>
      <trkpt lat="42.90721" lon="0.1122">
        <ele>1600</ele>
        <time>2017-02-18T08:43:35Z</time>
      </trkpt>
      <trkpt lat="42.90723" lon="0.11245">
        <ele>1602</ele>
        <time>2017-02-18T08:43:58Z</time>
      </trkpt>
      <trkpt lat="42.90725" lon="0.11249">
        <ele>1606</ele>
        <time>2017-02-18T08:46:09Z</time>
      </trkpt>
      <trkpt lat="42.90723" lon="0.11252">
        <ele>1609</ele>
        <time>2017-02-18T08:46:14Z</time>
      </trkpt>
      <trkpt lat="42.90723" lon="0.11256">
        <ele>1609</ele>
        <time>2017-02-18T08:46:20Z</time>
      </trkpt>
      <trkpt lat="42.90726" lon="0.11292">
        <ele>1609</ele>
        <time>2017-02-18T08:46:49Z</time>
      </trkpt>
      <trkpt lat="42.90727" lon="0.11329">
        <ele>1610</ele>
        <time>2017-02-18T08:47:20Z</time>
      </trkpt>
      <trkpt lat="42.90729" lon="0.11364">
        <ele>1611</ele>
        <time>2017-02-18T08:47:48Z</time>
      </trkpt>
      <trkpt lat="42.90734" lon="0.11403">
        <ele>1614</ele>
        <time>2017-02-18T08:48:21Z</time>
      </trkpt>
      <trkpt lat="42.90737" lon="0.11443">
        <ele>1617</ele>
        <time>2017-02-18T08:48:53Z</time>
      </trkpt>
      <trkpt lat="42.90739" lon="0.11477">
        <ele>1617</ele>
        <time>2017-02-18T08:49:25Z</time>
      </trkpt>
      <trkpt lat="42.90743" lon="0.11493">
        <ele>1619</ele>
        <time>2017-02-18T08:49:38Z</time>
      </trkpt>
      <trkpt lat="42.90749" lon="0.11498">
        <ele>1622</ele>
        <time>2017-02-18T08:49:49Z</time>
      </trkpt>
      <trkpt lat="42.9076" lon="0.1151">
        <ele>1628</ele>
        <time>2017-02-18T08:50:15Z</time>
      </trkpt>
      <trkpt lat="42.90774" lon="0.11525">
        <ele>1631</ele>
        <time>2017-02-18T08:50:42Z</time>
      </trkpt>
      <trkpt lat="42.90781" lon="0.11533">
        <ele>1634</ele>
        <time>2017-02-18T08:50:56Z</time>
      </trkpt>
      <trkpt lat="42.9079" lon="0.11535">
        <ele>1636</ele>
        <time>2017-02-18T08:51:12Z</time>
      </trkpt>
      <trkpt lat="42.90796" lon="0.11538">
        <ele>1636</ele>
        <time>2017-02-18T08:51:23Z</time>
      </trkpt>
      <trkpt lat="42.90798" lon="0.11541">
        <ele>1637</ele>
        <time>2017-02-18T08:51:28Z</time>
      </trkpt>
      <trkpt lat="42.90798" lon="0.11545">
        <ele>1636</ele>
        <time>2017-02-18T08:51:31Z</time>
      </trkpt>
      <trkpt lat="42.90797" lon="0.11549">
        <ele>1636</ele>
        <time>2017-02-18T08:51:37Z</time>
      </trkpt>
      <trkpt lat="42.90803" lon="0.11555">
        <ele>1637</ele>
        <time>2017-02-18T08:51:47Z</time>
      </trkpt>
      <trkpt lat="42.90815" lon="0.1157">
        <ele>1638</ele>
        <time>2017-02-18T08:52:08Z</time>
      </trkpt>
      <trkpt lat="42.90814" lon="0.11579">
        <ele>1639</ele>
        <time>2017-02-18T08:52:15Z</time>
      </trkpt>
      <trkpt lat="42.90812" lon="0.11592">
        <ele>1638</ele>
        <time>2017-02-18T08:52:25Z</time>
      </trkpt>
      <trkpt lat="42.9081" lon="0.11596">
        <ele>1639</ele>
        <time>2017-02-18T08:52:29Z</time>
      </trkpt>
      <trkpt lat="42.90813" lon="0.11599">
        <ele>1640</ele>
        <time>2017-02-18T08:52:34Z</time>
      </trkpt>
      <trkpt lat="42.90816" lon="0.11598">
        <ele>1640</ele>
        <time>2017-02-18T08:52:38Z</time>
      </trkpt>
      <trkpt lat="42.90827" lon="0.1159">
        <ele>1641</ele>
        <time>2017-02-18T08:52:53Z</time>
      </trkpt>
      <trkpt lat="42.90837" lon="0.11581">
        <ele>1642</ele>
        <time>2017-02-18T08:53:08Z</time>
      </trkpt>
      <trkpt lat="42.90855" lon="0.11578">
        <ele>1647</ele>
        <time>2017-02-18T08:53:38Z</time>
      </trkpt>
      <trkpt lat="42.90858" lon="0.11578">
        <ele>1647</ele>
        <time>2017-02-18T08:53:44Z</time>
      </trkpt>
      <trkpt lat="42.90867" lon="0.11582">
        <ele>1650</ele>
        <time>2017-02-18T08:53:59Z</time>
      </trkpt>
      <trkpt lat="42.90868" lon="0.11585">
        <ele>1651</ele>
        <time>2017-02-18T08:54:04Z</time>
      </trkpt>
      <trkpt lat="42.90871" lon="0.11601">
        <ele>1654</ele>
        <time>2017-02-18T08:54:23Z</time>
      </trkpt>
      <trkpt lat="42.90873" lon="0.11602">
        <ele>1654</ele>
        <time>2017-02-18T08:54:27Z</time>
      </trkpt>
      <trkpt lat="42.90876" lon="0.11603">
        <ele>1656</ele>
        <time>2017-02-18T08:54:34Z</time>
      </trkpt>
      <trkpt lat="42.90891" lon="0.11609">
        <ele>1658</ele>
        <time>2017-02-18T08:55:05Z</time>
      </trkpt>
      <trkpt lat="42.90897" lon="0.1161">
        <ele>1659</ele>
        <time>2017-02-18T08:55:18Z</time>
      </trkpt>
      <trkpt lat="42.90897" lon="0.11614">
        <ele>1662</ele>
        <time>2017-02-18T08:55:30Z</time>
      </trkpt>
      <trkpt lat="42.90896" lon="0.11618">
        <ele>1665</ele>
        <time>2017-02-18T08:55:48Z</time>
      </trkpt>
      <trkpt lat="42.90898" lon="0.1162">
        <ele>1667</ele>
        <time>2017-02-18T08:56:01Z</time>
      </trkpt>
      <trkpt lat="42.90901" lon="0.11622">
        <ele>1667</ele>
        <time>2017-02-18T08:56:08Z</time>
      </trkpt>
      <trkpt lat="42.90904" lon="0.11623">
        <ele>1667</ele>
        <time>2017-02-18T08:56:14Z</time>
      </trkpt>
      <trkpt lat="42.90903" lon="0.11627">
        <ele>1667</ele>
        <time>2017-02-18T08:56:29Z</time>
      </trkpt>
      <trkpt lat="42.90901" lon="0.1163">
        <ele>1668</ele>
        <time>2017-02-18T08:56:33Z</time>
      </trkpt>
      <trkpt lat="42.909" lon="0.11634">
        <ele>1668</ele>
        <time>2017-02-18T08:56:41Z</time>
      </trkpt>
      <trkpt lat="42.90902" lon="0.11637">
        <ele>1668</ele>
        <time>2017-02-18T08:56:47Z</time>
      </trkpt>
      <trkpt lat="42.9091" lon="0.11641">
        <ele>1671</ele>
        <time>2017-02-18T08:57:09Z</time>
      </trkpt>
      <trkpt lat="42.90914" lon="0.11647">
        <ele>1673</ele>
        <time>2017-02-18T08:57:24Z</time>
      </trkpt>
      <trkpt lat="42.90917" lon="0.11649">
        <ele>1673</ele>
        <time>2017-02-18T08:57:29Z</time>
      </trkpt>
      <trkpt lat="42.90922" lon="0.11653">
        <ele>1674</ele>
        <time>2017-02-18T08:57:44Z</time>
      </trkpt>
      <trkpt lat="42.90922" lon="0.11657">
        <ele>1677</ele>
        <time>2017-02-18T08:58:00Z</time>
      </trkpt>
      <trkpt lat="42.90919" lon="0.1166">
        <ele>1678</ele>
        <time>2017-02-18T08:58:06Z</time>
      </trkpt>
      <trkpt lat="42.90917" lon="0.11662">
        <ele>1678</ele>
        <time>2017-02-18T08:58:13Z</time>
      </trkpt>
      <trkpt lat="42.90911" lon="0.11663">
        <ele>1681</ele>
        <time>2017-02-18T08:58:25Z</time>
      </trkpt>
      <trkpt lat="42.90912" lon="0.11667">
        <ele>1683</ele>
        <time>2017-02-18T08:58:50Z</time>
      </trkpt>
      <trkpt lat="42.90916" lon="0.11672">
        <ele>1684</ele>
        <time>2017-02-18T08:59:00Z</time>
      </trkpt>
      <trkpt lat="42.90919" lon="0.11675">
        <ele>1685</ele>
        <time>2017-02-18T08:59:08Z</time>
      </trkpt>
      <trkpt lat="42.90926" lon="0.1168">
        <ele>1685</ele>
        <time>2017-02-18T08:59:23Z</time>
      </trkpt>
      <trkpt lat="42.90938" lon="0.11686">
        <ele>1689</ele>
        <time>2017-02-18T08:59:48Z</time>
      </trkpt>
      <trkpt lat="42.90937" lon="0.1169">
        <ele>1689</ele>
        <time>2017-02-18T09:00:13Z</time>
      </trkpt>
      <trkpt lat="42.90935" lon="0.11693">
        <ele>1691</ele>
        <time>2017-02-18T09:00:18Z</time>
      </trkpt>
      <trkpt lat="42.9093" lon="0.11697">
        <ele>1692</ele>
        <time>2017-02-18T09:00:28Z</time>
      </trkpt>
      <trkpt lat="42.90921" lon="0.11707">
        <ele>1694</ele>
        <time>2017-02-18T09:00:47Z</time>
      </trkpt>
      <trkpt lat="42.90919" lon="0.1171">
        <ele>1694</ele>
        <time>2017-02-18T09:00:52Z</time>
      </trkpt>
      <trkpt lat="42.9092" lon="0.11713">
        <ele>1694</ele>
        <time>2017-02-18T09:01:00Z</time>
      </trkpt>
      <trkpt lat="42.90939" lon="0.11726">
        <ele>1701</ele>
        <time>2017-02-18T09:01:34Z</time>
      </trkpt>
      <trkpt lat="42.90948" lon="0.11732">
        <ele>1703</ele>
        <time>2017-02-18T09:01:48Z</time>
      </trkpt>
      <trkpt lat="42.90956" lon="0.1174">
        <ele>1705</ele>
        <time>2017-02-18T09:02:03Z</time>
      </trkpt>
      <trkpt lat="42.90971" lon="0.11754">
        <ele>1709</ele>
        <time>2017-02-18T09:02:37Z</time>
      </trkpt>
      <trkpt lat="42.90973" lon="0.11756">
        <ele>1709</ele>
        <time>2017-02-18T09:02:47Z</time>
      </trkpt>
      <trkpt lat="42.90974" lon="0.11761">
        <ele>1709</ele>
        <time>2017-02-18T09:03:00Z</time>
      </trkpt>
      <trkpt lat="42.90981" lon="0.11768">
        <ele>1713</ele>
        <time>2017-02-18T09:03:32Z</time>
      </trkpt>
      <trkpt lat="42.90985" lon="0.11773">
        <ele>1715</ele>
        <time>2017-02-18T09:03:45Z</time>
      </trkpt>
      <trkpt lat="42.90992" lon="0.11787">
        <ele>1716</ele>
        <time>2017-02-18T09:04:25Z</time>
      </trkpt>
      <trkpt lat="42.90997" lon="0.11797">
        <ele>1718</ele>
        <time>2017-02-18T09:04:56Z</time>
      </trkpt>
      <trkpt lat="42.91003" lon="0.11812">
        <ele>1718</ele>
        <time>2017-02-18T09:05:28Z</time>
      </trkpt>
      <trkpt lat="42.91015" lon="0.1183">
        <ele>1721</ele>
        <time>2017-02-18T09:05:58Z</time>
      </trkpt>
      <trkpt lat="42.91021" lon="0.11839">
        <ele>1722</ele>
        <time>2017-02-18T09:06:12Z</time>
      </trkpt>
      <trkpt lat="42.91022" lon="0.11843">
        <ele>1723</ele>
        <time>2017-02-18T09:06:16Z</time>
      </trkpt>
      <trkpt lat="42.91027" lon="0.11848">
        <ele>1723</ele>
        <time>2017-02-18T09:06:25Z</time>
      </trkpt>
      <trkpt lat="42.91044" lon="0.11855">
        <ele>1727</ele>
        <time>2017-02-18T09:06:55Z</time>
      </trkpt>
      <trkpt lat="42.91064" lon="0.11866">
        <ele>1730</ele>
        <time>2017-02-18T09:07:29Z</time>
      </trkpt>
      <trkpt lat="42.91081" lon="0.11879">
        <ele>1734</ele>
        <time>2017-02-18T09:08:01Z</time>
      </trkpt>
      <trkpt lat="42.91088" lon="0.11888">
        <ele>1737</ele>
        <time>2017-02-18T09:08:16Z</time>
      </trkpt>
      <trkpt lat="42.91094" lon="0.11888">
        <ele>1738</ele>
        <time>2017-02-18T09:08:26Z</time>
      </trkpt>
      <trkpt lat="42.91095" lon="0.11884">
        <ele>1739</ele>
        <time>2017-02-18T09:08:31Z</time>
      </trkpt>
      <trkpt lat="42.91094" lon="0.11869">
        <ele>1740</ele>
        <time>2017-02-18T09:08:52Z</time>
      </trkpt>
      <trkpt lat="42.91095" lon="0.11867">
        <ele>1740</ele>
        <time>2017-02-18T09:13:06Z</time>
      </trkpt>
      <trkpt lat="42.91098" lon="0.11866">
        <ele>1744</ele>
        <time>2017-02-18T09:13:13Z</time>
      </trkpt>
      <trkpt lat="42.91116" lon="0.11874">
        <ele>1752</ele>
        <time>2017-02-18T09:13:44Z</time>
      </trkpt>
      <trkpt lat="42.9113" lon="0.11879">
        <ele>1757</ele>
        <time>2017-02-18T09:14:18Z</time>
      </trkpt>
      <trkpt lat="42.91133" lon="0.1188">
        <ele>1757</ele>
        <time>2017-02-18T09:14:22Z</time>
      </trkpt>
      <trkpt lat="42.91141" lon="0.11889">
        <ele>1759</ele>
        <time>2017-02-18T09:14:40Z</time>
      </trkpt>
      <trkpt lat="42.91146" lon="0.11893">
        <ele>1761</ele>
        <time>2017-02-18T09:14:51Z</time>
      </trkpt>
      <trkpt lat="42.91158" lon="0.11898">
        <ele>1766</ele>
        <time>2017-02-18T09:15:16Z</time>
      </trkpt>
      <trkpt lat="42.91159" lon="0.11895">
        <ele>1766</ele>
        <time>2017-02-18T09:15:33Z</time>
      </trkpt>
      <trkpt lat="42.9116" lon="0.11874">
        <ele>1765</ele>
        <time>2017-02-18T09:16:00Z</time>
      </trkpt>
      <trkpt lat="42.91162" lon="0.11871">
        <ele>1766</ele>
        <time>2017-02-18T09:16:11Z</time>
      </trkpt>
      <trkpt lat="42.91165" lon="0.11873">
        <ele>1768</ele>
        <time>2017-02-18T09:16:17Z</time>
      </trkpt>
      <trkpt lat="42.91169" lon="0.11878">
        <ele>1770</ele>
        <time>2017-02-18T09:16:28Z</time>
      </trkpt>
      <trkpt lat="42.91179" lon="0.11888">
        <ele>1774</ele>
        <time>2017-02-18T09:16:50Z</time>
      </trkpt>
      <trkpt lat="42.91187" lon="0.11894">
        <ele>1777</ele>
        <time>2017-02-18T09:17:06Z</time>
      </trkpt>
      <trkpt lat="42.91192" lon="0.11886">
        <ele>1780</ele>
        <time>2017-02-18T09:17:45Z</time>
      </trkpt>
      <trkpt lat="42.91193" lon="0.11864">
        <ele>1782</ele>
        <time>2017-02-18T09:18:16Z</time>
      </trkpt>
      <trkpt lat="42.91193" lon="0.11853">
        <ele>1784</ele>
        <time>2017-02-18T09:18:28Z</time>
      </trkpt>
      <trkpt lat="42.91196" lon="0.11853">
        <ele>1785</ele>
        <time>2017-02-18T09:18:45Z</time>
      </trkpt>
      <trkpt lat="42.91205" lon="0.11859">
        <ele>1790</ele>
        <time>2017-02-18T09:19:02Z</time>
      </trkpt>
      <trkpt lat="42.91211" lon="0.11864">
        <ele>1791</ele>
        <time>2017-02-18T09:19:15Z</time>
      </trkpt>
      <trkpt lat="42.91226" lon="0.11879">
        <ele>1795</ele>
        <time>2017-02-18T09:19:48Z</time>
      </trkpt>
      <trkpt lat="42.9123" lon="0.11883">
        <ele>1795</ele>
        <time>2017-02-18T09:19:59Z</time>
      </trkpt>
      <trkpt lat="42.91231" lon="0.11879">
        <ele>1795</ele>
        <time>2017-02-18T09:20:07Z</time>
      </trkpt>
      <trkpt lat="42.91229" lon="0.11859">
        <ele>1797</ele>
        <time>2017-02-18T09:20:35Z</time>
      </trkpt>
      <trkpt lat="42.91227" lon="0.11852">
        <ele>1797</ele>
        <time>2017-02-18T09:20:46Z</time>
      </trkpt>
      <trkpt lat="42.91231" lon="0.11852">
        <ele>1797</ele>
        <time>2017-02-18T09:20:55Z</time>
      </trkpt>
      <trkpt lat="42.91236" lon="0.11857">
        <ele>1798</ele>
        <time>2017-02-18T09:21:06Z</time>
      </trkpt>
      <trkpt lat="42.91248" lon="0.11867">
        <ele>1803</ele>
        <time>2017-02-18T09:21:34Z</time>
      </trkpt>
      <trkpt lat="42.91263" lon="0.11873">
        <ele>1808</ele>
        <time>2017-02-18T09:21:58Z</time>
      </trkpt>
      <trkpt lat="42.91266" lon="0.11875">
        <ele>1809</ele>
        <time>2017-02-18T09:22:03Z</time>
      </trkpt>
      <trkpt lat="42.91269" lon="0.11872">
        <ele>1810</ele>
        <time>2017-02-18T09:22:12Z</time>
      </trkpt>
      <trkpt lat="42.91267" lon="0.11869">
        <ele>1811</ele>
        <time>2017-02-18T09:22:17Z</time>
      </trkpt>
      <trkpt lat="42.91266" lon="0.11865">
        <ele>1813</ele>
        <time>2017-02-18T09:22:22Z</time>
      </trkpt>
      <trkpt lat="42.91265" lon="0.11848">
        <ele>1816</ele>
        <time>2017-02-18T09:22:45Z</time>
      </trkpt>
      <trkpt lat="42.91267" lon="0.11847">
        <ele>1817</ele>
        <time>2017-02-18T09:22:52Z</time>
      </trkpt>
      <trkpt lat="42.91283" lon="0.1185">
        <ele>1826</ele>
        <time>2017-02-18T09:23:24Z</time>
      </trkpt>
      <trkpt lat="42.91283" lon="0.11846">
        <ele>1826</ele>
        <time>2017-02-18T09:23:32Z</time>
      </trkpt>
      <trkpt lat="42.91282" lon="0.11838">
        <ele>1829</ele>
        <time>2017-02-18T09:23:42Z</time>
      </trkpt>
      <trkpt lat="42.91279" lon="0.11824">
        <ele>1832</ele>
        <time>2017-02-18T09:24:04Z</time>
      </trkpt>
      <trkpt lat="42.91278" lon="0.1182">
        <ele>1833</ele>
        <time>2017-02-18T09:24:09Z</time>
      </trkpt>
      <trkpt lat="42.91281" lon="0.11821">
        <ele>1836</ele>
        <time>2017-02-18T09:24:28Z</time>
      </trkpt>
      <trkpt lat="42.9129" lon="0.11825">
        <ele>1839</ele>
        <time>2017-02-18T09:24:42Z</time>
      </trkpt>
      <trkpt lat="42.91292" lon="0.11827">
        <ele>1840</ele>
        <time>2017-02-18T09:24:49Z</time>
      </trkpt>
      <trkpt lat="42.91308" lon="0.11832">
        <ele>1841</ele>
        <time>2017-02-18T09:25:16Z</time>
      </trkpt>
      <trkpt lat="42.9132" lon="0.11833">
        <ele>1844</ele>
        <time>2017-02-18T09:25:35Z</time>
      </trkpt>
      <trkpt lat="42.91338" lon="0.11839">
        <ele>1849</ele>
        <time>2017-02-18T09:26:07Z</time>
      </trkpt>
      <trkpt lat="42.9134" lon="0.11836">
        <ele>1849</ele>
        <time>2017-02-18T09:26:15Z</time>
      </trkpt>
      <trkpt lat="42.9134" lon="0.11832">
        <ele>1849</ele>
        <time>2017-02-18T09:26:20Z</time>
      </trkpt>
      <trkpt lat="42.91336" lon="0.11822">
        <ele>1849</ele>
        <time>2017-02-18T09:26:35Z</time>
      </trkpt>
      <trkpt lat="42.91335" lon="0.11818">
        <ele>1850</ele>
        <time>2017-02-18T09:26:39Z</time>
      </trkpt>
      <trkpt lat="42.91336" lon="0.11815">
        <ele>1850</ele>
        <time>2017-02-18T09:26:45Z</time>
      </trkpt>
      <trkpt lat="42.91339" lon="0.11812">
        <ele>1850</ele>
        <time>2017-02-18T09:26:49Z</time>
      </trkpt>
      <trkpt lat="42.91354" lon="0.11793">
        <ele>1849</ele>
        <time>2017-02-18T09:27:22Z</time>
      </trkpt>
      <trkpt lat="42.9136" lon="0.11785">
        <ele>1849</ele>
        <time>2017-02-18T09:27:35Z</time>
      </trkpt>
      <trkpt lat="42.91363" lon="0.11778">
        <ele>1849</ele>
        <time>2017-02-18T09:27:44Z</time>
      </trkpt>
      <trkpt lat="42.91363" lon="0.11777">
        <ele>1853</ele>
        <time>2017-02-18T09:28:11Z</time>
      </trkpt>
      <trkpt lat="42.91364" lon="0.11776">
        <ele>1856</ele>
        <time>2017-02-18T09:29:02Z</time>
      </trkpt>
      <trkpt lat="42.91366" lon="0.11777">
        <ele>1856</ele>
        <time>2017-02-18T09:29:06Z</time>
      </trkpt>
      <trkpt lat="42.91369" lon="0.1178">
        <ele>1863</ele>
        <time>2017-02-18T09:30:30Z</time>
      </trkpt>
      <trkpt lat="42.91369" lon="0.11785">
        <ele>1861</ele>
        <time>2017-02-18T09:30:37Z</time>
      </trkpt>
      <trkpt lat="42.91365" lon="0.11784">
        <ele>1858</ele>
        <time>2017-02-18T09:31:15Z</time>
      </trkpt>
      <trkpt lat="42.91366" lon="0.11781">
        <ele>1857</ele>
        <time>2017-02-18T09:31:18Z</time>
      </trkpt>
      <trkpt lat="42.91368" lon="0.11778">
        <ele>1853</ele>
        <time>2017-02-18T09:34:11Z</time>
      </trkpt>
      <trkpt lat="42.9137" lon="0.11782">
        <ele>1854</ele>
        <time>2017-02-18T09:34:48Z</time>
      </trkpt>
      <trkpt lat="42.9139" lon="0.11787">
        <ele>1859</ele>
        <time>2017-02-18T09:35:22Z</time>
      </trkpt>
      <trkpt lat="42.91396" lon="0.11785">
        <ele>1858</ele>
        <time>2017-02-18T09:35:31Z</time>
      </trkpt>
      <trkpt lat="42.91413" lon="0.11775">
        <ele>1860</ele>
        <time>2017-02-18T09:36:02Z</time>
      </trkpt>
      <trkpt lat="42.91422" lon="0.11771">
        <ele>1863</ele>
        <time>2017-02-18T09:36:16Z</time>
      </trkpt>
      <trkpt lat="42.91424" lon="0.11774">
        <ele>1864</ele>
        <time>2017-02-18T09:36:25Z</time>
      </trkpt>
      <trkpt lat="42.9143" lon="0.11797">
        <ele>1868</ele>
        <time>2017-02-18T09:36:59Z</time>
      </trkpt>
      <trkpt lat="42.91439" lon="0.11818">
        <ele>1869</ele>
        <time>2017-02-18T09:37:31Z</time>
      </trkpt>
      <trkpt lat="42.91449" lon="0.11834">
        <ele>1874</ele>
        <time>2017-02-18T09:37:57Z</time>
      </trkpt>
      <trkpt lat="42.91461" lon="0.11848">
        <ele>1879</ele>
        <time>2017-02-18T09:38:24Z</time>
      </trkpt>
      <trkpt lat="42.91464" lon="0.11849">
        <ele>1879</ele>
        <time>2017-02-18T09:38:29Z</time>
      </trkpt>
      <trkpt lat="42.91466" lon="0.11846">
        <ele>1879</ele>
        <time>2017-02-18T09:38:33Z</time>
      </trkpt>
      <trkpt lat="42.91468" lon="0.11843">
        <ele>1879</ele>
        <time>2017-02-18T09:38:38Z</time>
      </trkpt>
      <trkpt lat="42.91477" lon="0.11821">
        <ele>1887</ele>
        <time>2017-02-18T09:39:12Z</time>
      </trkpt>
      <trkpt lat="42.91485" lon="0.1181">
        <ele>1892</ele>
        <time>2017-02-18T09:39:33Z</time>
      </trkpt>
      <trkpt lat="42.91487" lon="0.11812">
        <ele>1892</ele>
        <time>2017-02-18T09:39:39Z</time>
      </trkpt>
      <trkpt lat="42.91492" lon="0.11817">
        <ele>1892</ele>
        <time>2017-02-18T09:39:50Z</time>
      </trkpt>
      <trkpt lat="42.91502" lon="0.11837">
        <ele>1895</ele>
        <time>2017-02-18T09:40:20Z</time>
      </trkpt>
      <trkpt lat="42.91505" lon="0.11838">
        <ele>1895</ele>
        <time>2017-02-18T09:40:25Z</time>
      </trkpt>
      <trkpt lat="42.91509" lon="0.11837">
        <ele>1896</ele>
        <time>2017-02-18T09:40:30Z</time>
      </trkpt>
      <trkpt lat="42.9153" lon="0.11836">
        <ele>1902</ele>
        <time>2017-02-18T09:41:03Z</time>
      </trkpt>
      <trkpt lat="42.91547" lon="0.11845">
        <ele>1905</ele>
        <time>2017-02-18T09:41:35Z</time>
      </trkpt>
      <trkpt lat="42.91548" lon="0.11849">
        <ele>1906</ele>
        <time>2017-02-18T09:41:41Z</time>
      </trkpt>
      <trkpt lat="42.91549" lon="0.11857">
        <ele>1907</ele>
        <time>2017-02-18T09:41:52Z</time>
      </trkpt>
      <trkpt lat="42.91554" lon="0.11868">
        <ele>1909</ele>
        <time>2017-02-18T09:42:05Z</time>
      </trkpt>
      <trkpt lat="42.91559" lon="0.11879">
        <ele>1909</ele>
        <time>2017-02-18T09:42:20Z</time>
      </trkpt>
      <trkpt lat="42.91565" lon="0.11893">
        <ele>1909</ele>
        <time>2017-02-18T09:42:42Z</time>
      </trkpt>
      <trkpt lat="42.91569" lon="0.11898">
        <ele>1912</ele>
        <time>2017-02-18T09:42:50Z</time>
      </trkpt>
      <trkpt lat="42.91572" lon="0.11899">
        <ele>1914</ele>
        <time>2017-02-18T09:42:56Z</time>
      </trkpt>
      <trkpt lat="42.91585" lon="0.11894">
        <ele>1919</ele>
        <time>2017-02-18T09:43:23Z</time>
      </trkpt>
      <trkpt lat="42.91587" lon="0.11897">
        <ele>1920</ele>
        <time>2017-02-18T09:43:31Z</time>
      </trkpt>
      <trkpt lat="42.91589" lon="0.11901">
        <ele>1921</ele>
        <time>2017-02-18T09:43:37Z</time>
      </trkpt>
      <trkpt lat="42.91592" lon="0.11908">
        <ele>1923</ele>
        <time>2017-02-18T09:43:50Z</time>
      </trkpt>
      <trkpt lat="42.91595" lon="0.11907">
        <ele>1925</ele>
        <time>2017-02-18T09:43:57Z</time>
      </trkpt>
      <trkpt lat="42.91598" lon="0.119">
        <ele>1928</ele>
        <time>2017-02-18T09:44:07Z</time>
      </trkpt>
      <trkpt lat="42.91601" lon="0.11893">
        <ele>1931</ele>
        <time>2017-02-18T09:44:18Z</time>
      </trkpt>
      <trkpt lat="42.91605" lon="0.11873">
        <ele>1939</ele>
        <time>2017-02-18T09:44:47Z</time>
      </trkpt>
      <trkpt lat="42.91607" lon="0.11872">
        <ele>1939</ele>
        <time>2017-02-18T09:44:51Z</time>
      </trkpt>
      <trkpt lat="42.91609" lon="0.11875">
        <ele>1940</ele>
        <time>2017-02-18T09:45:11Z</time>
      </trkpt>
      <trkpt lat="42.91619" lon="0.11884">
        <ele>1943</ele>
        <time>2017-02-18T09:45:29Z</time>
      </trkpt>
      <trkpt lat="42.91623" lon="0.11891">
        <ele>1944</ele>
        <time>2017-02-18T09:45:41Z</time>
      </trkpt>
      <trkpt lat="42.91626" lon="0.11889">
        <ele>1944</ele>
        <time>2017-02-18T09:45:46Z</time>
      </trkpt>
      <trkpt lat="42.91628" lon="0.11888">
        <ele>1945</ele>
        <time>2017-02-18T09:45:51Z</time>
      </trkpt>
      <trkpt lat="42.91633" lon="0.11885">
        <ele>1946</ele>
        <time>2017-02-18T09:46:03Z</time>
      </trkpt>
      <trkpt lat="42.91636" lon="0.11888">
        <ele>1946</ele>
        <time>2017-02-18T09:46:12Z</time>
      </trkpt>
      <trkpt lat="42.9164" lon="0.11894">
        <ele>1949</ele>
        <time>2017-02-18T09:46:26Z</time>
      </trkpt>
      <trkpt lat="42.91642" lon="0.11897">
        <ele>1951</ele>
        <time>2017-02-18T09:46:32Z</time>
      </trkpt>
      <trkpt lat="42.91644" lon="0.11898">
        <ele>1951</ele>
        <time>2017-02-18T09:46:38Z</time>
      </trkpt>
      <trkpt lat="42.91647" lon="0.11895">
        <ele>1953</ele>
        <time>2017-02-18T09:46:44Z</time>
      </trkpt>
      <trkpt lat="42.91654" lon="0.11887">
        <ele>1955</ele>
        <time>2017-02-18T09:47:00Z</time>
      </trkpt>
      <trkpt lat="42.91657" lon="0.11885">
        <ele>1957</ele>
        <time>2017-02-18T09:47:27Z</time>
      </trkpt>
      <trkpt lat="42.91659" lon="0.11887">
        <ele>1957</ele>
        <time>2017-02-18T09:47:33Z</time>
      </trkpt>
      <trkpt lat="42.91661" lon="0.1189">
        <ele>1959</ele>
        <time>2017-02-18T09:47:38Z</time>
      </trkpt>
      <trkpt lat="42.9167" lon="0.11902">
        <ele>1964</ele>
        <time>2017-02-18T09:48:00Z</time>
      </trkpt>
      <trkpt lat="42.91672" lon="0.11903">
        <ele>1965</ele>
        <time>2017-02-18T09:48:06Z</time>
      </trkpt>
      <trkpt lat="42.91675" lon="0.11901">
        <ele>1966</ele>
        <time>2017-02-18T09:48:13Z</time>
      </trkpt>
      <trkpt lat="42.91689" lon="0.11887">
        <ele>1970</ele>
        <time>2017-02-18T09:48:44Z</time>
      </trkpt>
      <trkpt lat="42.91691" lon="0.11884">
        <ele>1971</ele>
        <time>2017-02-18T09:48:49Z</time>
      </trkpt>
      <trkpt lat="42.91694" lon="0.11886">
        <ele>1971</ele>
        <time>2017-02-18T09:48:55Z</time>
      </trkpt>
      <trkpt lat="42.91698" lon="0.11893">
        <ele>1974</ele>
        <time>2017-02-18T09:49:06Z</time>
      </trkpt>
      <trkpt lat="42.91701" lon="0.11895">
        <ele>1976</ele>
        <time>2017-02-18T09:49:11Z</time>
      </trkpt>
      <trkpt lat="42.91704" lon="0.11902">
        <ele>1979</ele>
        <time>2017-02-18T09:49:23Z</time>
      </trkpt>
      <trkpt lat="42.91707" lon="0.11908">
        <ele>1982</ele>
        <time>2017-02-18T09:49:37Z</time>
      </trkpt>
      <trkpt lat="42.9171" lon="0.11908">
        <ele>1982</ele>
        <time>2017-02-18T09:49:44Z</time>
      </trkpt>
      <trkpt lat="42.91713" lon="0.11907">
        <ele>1982</ele>
        <time>2017-02-18T09:49:50Z</time>
      </trkpt>
      <trkpt lat="42.91726" lon="0.119">
        <ele>1983</ele>
        <time>2017-02-18T09:50:20Z</time>
      </trkpt>
      <trkpt lat="42.91729" lon="0.11899">
        <ele>1983</ele>
        <time>2017-02-18T09:50:27Z</time>
      </trkpt>
      <trkpt lat="42.91734" lon="0.11893">
        <ele>1984</ele>
        <time>2017-02-18T09:50:37Z</time>
      </trkpt>
      <trkpt lat="42.91737" lon="0.11887">
        <ele>1985</ele>
        <time>2017-02-18T09:50:47Z</time>
      </trkpt>
      <trkpt lat="42.9174" lon="0.11879">
        <ele>1987</ele>
        <time>2017-02-18T09:51:15Z</time>
      </trkpt>
      <trkpt lat="42.91742" lon="0.11876">
        <ele>1989</ele>
        <time>2017-02-18T09:51:20Z</time>
      </trkpt>
      <trkpt lat="42.91745" lon="0.11877">
        <ele>1989</ele>
        <time>2017-02-18T09:51:26Z</time>
      </trkpt>
      <trkpt lat="42.91763" lon="0.11877">
        <ele>1992</ele>
        <time>2017-02-18T09:51:56Z</time>
      </trkpt>
      <trkpt lat="42.91778" lon="0.11873">
        <ele>1994</ele>
        <time>2017-02-18T09:52:23Z</time>
      </trkpt>
      <trkpt lat="42.9179" lon="0.11869">
        <ele>1995</ele>
        <time>2017-02-18T09:52:45Z</time>
      </trkpt>
      <trkpt lat="42.91804" lon="0.11862">
        <ele>1999</ele>
        <time>2017-02-18T09:53:13Z</time>
      </trkpt>
      <trkpt lat="42.91815" lon="0.11857">
        <ele>2003</ele>
        <time>2017-02-18T09:53:34Z</time>
      </trkpt>
      <trkpt lat="42.91828" lon="0.11842">
        <ele>2010</ele>
        <time>2017-02-18T09:54:09Z</time>
      </trkpt>
      <trkpt lat="42.9183" lon="0.11834">
        <ele>2013</ele>
        <time>2017-02-18T09:54:20Z</time>
      </trkpt>
      <trkpt lat="42.91836" lon="0.11812">
        <ele>2019</ele>
        <time>2017-02-18T09:54:53Z</time>
      </trkpt>
      <trkpt lat="42.91843" lon="0.11799">
        <ele>2022</ele>
        <time>2017-02-18T09:55:12Z</time>
      </trkpt>
      <trkpt lat="42.91848" lon="0.11789">
        <ele>2025</ele>
        <time>2017-02-18T09:55:28Z</time>
      </trkpt>
      <trkpt lat="42.91849" lon="0.11785">
        <ele>2026</ele>
        <time>2017-02-18T09:55:33Z</time>
      </trkpt>
      <trkpt lat="42.91858" lon="0.11775">
        <ele>2030</ele>
        <time>2017-02-18T09:55:55Z</time>
      </trkpt>
      <trkpt lat="42.9187" lon="0.11758">
        <ele>2034</ele>
        <time>2017-02-18T09:56:26Z</time>
      </trkpt>
      <trkpt lat="42.91879" lon="0.11738">
        <ele>2040</ele>
        <time>2017-02-18T09:57:00Z</time>
      </trkpt>
      <trkpt lat="42.91885" lon="0.11735">
        <ele>2043</ele>
        <time>2017-02-18T09:57:12Z</time>
      </trkpt>
      <trkpt lat="42.91888" lon="0.11733">
        <ele>2043</ele>
        <time>2017-02-18T09:57:16Z</time>
      </trkpt>
      <trkpt lat="42.91896" lon="0.11736">
        <ele>2044</ele>
        <time>2017-02-18T09:57:32Z</time>
      </trkpt>
      <trkpt lat="42.91899" lon="0.11735">
        <ele>2045</ele>
        <time>2017-02-18T09:57:37Z</time>
      </trkpt>
      <trkpt lat="42.91917" lon="0.11735">
        <ele>2052</ele>
        <time>2017-02-18T09:58:08Z</time>
      </trkpt>
      <trkpt lat="42.91931" lon="0.11731">
        <ele>2052</ele>
        <time>2017-02-18T09:58:40Z</time>
      </trkpt>
      <trkpt lat="42.91956" lon="0.1173">
        <ele>2053</ele>
        <time>2017-02-18T09:59:11Z</time>
      </trkpt>
      <trkpt lat="42.9198" lon="0.11726">
        <ele>2058</ele>
        <time>2017-02-18T09:59:42Z</time>
      </trkpt>
      <trkpt lat="42.91996" lon="0.11722">
        <ele>2060</ele>
        <time>2017-02-18T10:00:05Z</time>
      </trkpt>
      <trkpt lat="42.92008" lon="0.11719">
        <ele>2062</ele>
        <time>2017-02-18T10:00:22Z</time>
      </trkpt>
      <trkpt lat="42.92026" lon="0.11714">
        <ele>2068</ele>
        <time>2017-02-18T10:00:50Z</time>
      </trkpt>
      <trkpt lat="42.92049" lon="0.11716">
        <ele>2071</ele>
        <time>2017-02-18T10:01:21Z</time>
      </trkpt>
      <trkpt lat="42.92052" lon="0.11715">
        <ele>2071</ele>
        <time>2017-02-18T10:01:25Z</time>
      </trkpt>
      <trkpt lat="42.92072" lon="0.11719">
        <ele>2075</ele>
        <time>2017-02-18T10:01:55Z</time>
      </trkpt>
      <trkpt lat="42.92095" lon="0.11728">
        <ele>2079</ele>
        <time>2017-02-18T10:02:27Z</time>
      </trkpt>
      <trkpt lat="42.92127" lon="0.11724">
        <ele>2079</ele>
        <time>2017-02-18T10:02:59Z</time>
      </trkpt>
      <trkpt lat="42.92137" lon="0.11713">
        <ele>2079</ele>
        <time>2017-02-18T10:03:14Z</time>
      </trkpt>
      <trkpt lat="42.92139" lon="0.11711">
        <ele>2079</ele>
        <time>2017-02-18T10:03:18Z</time>
      </trkpt>
      <trkpt lat="42.92152" lon="0.1171">
        <ele>2082</ele>
        <time>2017-02-18T10:03:35Z</time>
      </trkpt>
      <trkpt lat="42.92155" lon="0.11709">
        <ele>2082</ele>
        <time>2017-02-18T10:03:39Z</time>
      </trkpt>
      <trkpt lat="42.92167" lon="0.11698">
        <ele>2088</ele>
        <time>2017-02-18T10:04:03Z</time>
      </trkpt>
      <trkpt lat="42.92181" lon="0.11681">
        <ele>2091</ele>
        <time>2017-02-18T10:04:28Z</time>
      </trkpt>
      <trkpt lat="42.92186" lon="0.11677">
        <ele>2092</ele>
        <time>2017-02-18T10:04:36Z</time>
      </trkpt>
      <trkpt lat="42.92202" lon="0.11663">
        <ele>2096</ele>
        <time>2017-02-18T10:05:02Z</time>
      </trkpt>
      <trkpt lat="42.922" lon="0.11662">
        <ele>2095</ele>
        <time>2017-02-18T10:09:41Z</time>
      </trkpt>
      <trkpt lat="42.92203" lon="0.11663">
        <ele>2097</ele>
        <time>2017-02-18T10:11:54Z</time>
      </trkpt>
      <trkpt lat="42.92203" lon="0.11641">
        <ele>2103</ele>
        <time>2017-02-18T10:12:11Z</time>
      </trkpt>
      <trkpt lat="42.92203" lon="0.11625">
        <ele>2105</ele>
        <time>2017-02-18T10:12:29Z</time>
      </trkpt>
      <trkpt lat="42.92199" lon="0.11603">
        <ele>2112</ele>
        <time>2017-02-18T10:12:59Z</time>
      </trkpt>
      <trkpt lat="42.92197" lon="0.1159">
        <ele>2114</ele>
        <time>2017-02-18T10:13:19Z</time>
      </trkpt>
      <trkpt lat="42.922" lon="0.11589">
        <ele>2115</ele>
        <time>2017-02-18T10:13:27Z</time>
      </trkpt>
      <trkpt lat="42.92209" lon="0.11591">
        <ele>2114</ele>
        <time>2017-02-18T10:13:44Z</time>
      </trkpt>
      <trkpt lat="42.92225" lon="0.11599">
        <ele>2117</ele>
        <time>2017-02-18T10:14:15Z</time>
      </trkpt>
      <trkpt lat="42.92227" lon="0.11595">
        <ele>2117</ele>
        <time>2017-02-18T10:14:31Z</time>
      </trkpt>
      <trkpt lat="42.92221" lon="0.1158">
        <ele>2117</ele>
        <time>2017-02-18T10:14:56Z</time>
      </trkpt>
      <trkpt lat="42.92217" lon="0.11569">
        <ele>2120</ele>
        <time>2017-02-18T10:15:17Z</time>
      </trkpt>
      <trkpt lat="42.92217" lon="0.11565">
        <ele>2122</ele>
        <time>2017-02-18T10:15:25Z</time>
      </trkpt>
      <trkpt lat="42.9222" lon="0.11567">
        <ele>2121</ele>
        <time>2017-02-18T10:15:31Z</time>
      </trkpt>
      <trkpt lat="42.92224" lon="0.11566">
        <ele>2121</ele>
        <time>2017-02-18T10:15:38Z</time>
      </trkpt>
      <trkpt lat="42.92227" lon="0.11568">
        <ele>2123</ele>
        <time>2017-02-18T10:15:44Z</time>
      </trkpt>
      <trkpt lat="42.92237" lon="0.11565">
        <ele>2125</ele>
        <time>2017-02-18T10:16:07Z</time>
      </trkpt>
      <trkpt lat="42.92238" lon="0.11563">
        <ele>2126</ele>
        <time>2017-02-18T10:16:29Z</time>
      </trkpt>
      <trkpt lat="42.92229" lon="0.11548">
        <ele>2131</ele>
        <time>2017-02-18T10:16:56Z</time>
      </trkpt>
      <trkpt lat="42.92231" lon="0.11551">
        <ele>2132</ele>
        <time>2017-02-18T10:17:12Z</time>
      </trkpt>
      <trkpt lat="42.92234" lon="0.11551">
        <ele>2132</ele>
        <time>2017-02-18T10:17:16Z</time>
      </trkpt>
      <trkpt lat="42.92254" lon="0.11555">
        <ele>2133</ele>
        <time>2017-02-18T10:17:51Z</time>
      </trkpt>
      <trkpt lat="42.92257" lon="0.11557">
        <ele>2134</ele>
        <time>2017-02-18T10:17:58Z</time>
      </trkpt>
      <trkpt lat="42.92263" lon="0.11562">
        <ele>2137</ele>
        <time>2017-02-18T10:18:13Z</time>
      </trkpt>
      <trkpt lat="42.92262" lon="0.11562">
        <ele>2141</ele>
        <time>2017-02-18T10:18:36Z</time>
      </trkpt>
      <trkpt lat="42.92261" lon="0.11555">
        <ele>2143</ele>
        <time>2017-02-18T10:18:46Z</time>
      </trkpt>
      <trkpt lat="42.92259" lon="0.11539">
        <ele>2145</ele>
        <time>2017-02-18T10:19:07Z</time>
      </trkpt>
      <trkpt lat="42.92258" lon="0.11536">
        <ele>2145</ele>
        <time>2017-02-18T10:19:13Z</time>
      </trkpt>
      <trkpt lat="42.92259" lon="0.11532">
        <ele>2145</ele>
        <time>2017-02-18T10:19:19Z</time>
      </trkpt>
      <trkpt lat="42.92262" lon="0.11532">
        <ele>2147</ele>
        <time>2017-02-18T10:19:39Z</time>
      </trkpt>
      <trkpt lat="42.92264" lon="0.11535">
        <ele>2148</ele>
        <time>2017-02-18T10:19:45Z</time>
      </trkpt>
      <trkpt lat="42.92275" lon="0.11543">
        <ele>2152</ele>
        <time>2017-02-18T10:20:09Z</time>
      </trkpt>
      <trkpt lat="42.92283" lon="0.11549">
        <ele>2153</ele>
        <time>2017-02-18T10:20:27Z</time>
      </trkpt>
      <trkpt lat="42.92297" lon="0.1156">
        <ele>2159</ele>
        <time>2017-02-18T10:20:58Z</time>
      </trkpt>
      <trkpt lat="42.92308" lon="0.11565">
        <ele>2163</ele>
        <time>2017-02-18T10:21:18Z</time>
      </trkpt>
      <trkpt lat="42.92322" lon="0.11561">
        <ele>2163</ele>
        <time>2017-02-18T10:21:50Z</time>
      </trkpt>
      <trkpt lat="42.92338" lon="0.11549">
        <ele>2169</ele>
        <time>2017-02-18T10:22:20Z</time>
      </trkpt>
      <trkpt lat="42.92355" lon="0.11539">
        <ele>2174</ele>
        <time>2017-02-18T10:22:50Z</time>
      </trkpt>
      <trkpt lat="42.92363" lon="0.11533">
        <ele>2180</ele>
        <time>2017-02-18T10:23:13Z</time>
      </trkpt>
      <trkpt lat="42.92385" lon="0.11529">
        <ele>2180</ele>
        <time>2017-02-18T10:23:44Z</time>
      </trkpt>
      <trkpt lat="42.9239" lon="0.11531">
        <ele>2178</ele>
        <time>2017-02-18T10:26:39Z</time>
      </trkpt>
      <trkpt lat="42.92392" lon="0.11534">
        <ele>2178</ele>
        <time>2017-02-18T10:31:05Z</time>
      </trkpt>
      <trkpt lat="42.92395" lon="0.11533">
        <ele>2183</ele>
        <time>2017-02-18T10:33:49Z</time>
      </trkpt>
      <trkpt lat="42.92401" lon="0.11532">
        <ele>2182</ele>
        <time>2017-02-18T10:33:58Z</time>
      </trkpt>
      <trkpt lat="42.92426" lon="0.11531">
        <ele>2181</ele>
        <time>2017-02-18T10:34:28Z</time>
      </trkpt>
      <trkpt lat="42.92441" lon="0.11527">
        <ele>2184</ele>
        <time>2017-02-18T10:34:49Z</time>
      </trkpt>
      <trkpt lat="42.92462" lon="0.11525">
        <ele>2186</ele>
        <time>2017-02-18T10:35:18Z</time>
      </trkpt>
      <trkpt lat="42.9248" lon="0.11524">
        <ele>2193</ele>
        <time>2017-02-18T10:35:49Z</time>
      </trkpt>
      <trkpt lat="42.92497" lon="0.11519">
        <ele>2198</ele>
        <time>2017-02-18T10:36:22Z</time>
      </trkpt>
      <trkpt lat="42.92503" lon="0.11519">
        <ele>2200</ele>
        <time>2017-02-18T10:36:33Z</time>
      </trkpt>
      <trkpt lat="42.92506" lon="0.11522">
        <ele>2201</ele>
        <time>2017-02-18T10:36:38Z</time>
      </trkpt>
      <trkpt lat="42.92509" lon="0.11522">
        <ele>2201</ele>
        <time>2017-02-18T10:36:47Z</time>
      </trkpt>
      <trkpt lat="42.92522" lon="0.11513">
        <ele>2205</ele>
        <time>2017-02-18T10:37:20Z</time>
      </trkpt>
      <trkpt lat="42.92526" lon="0.11512">
        <ele>2206</ele>
        <time>2017-02-18T10:37:25Z</time>
      </trkpt>
      <trkpt lat="42.92527" lon="0.11516">
        <ele>2206</ele>
        <time>2017-02-18T10:37:30Z</time>
      </trkpt>
      <trkpt lat="42.92529" lon="0.11519">
        <ele>2208</ele>
        <time>2017-02-18T10:37:36Z</time>
      </trkpt>
      <trkpt lat="42.92545" lon="0.11529">
        <ele>2212</ele>
        <time>2017-02-18T10:38:10Z</time>
      </trkpt>
      <trkpt lat="42.92562" lon="0.11532">
        <ele>2222</ele>
        <time>2017-02-18T10:38:45Z</time>
      </trkpt>
      <trkpt lat="42.92573" lon="0.1153">
        <ele>2227</ele>
        <time>2017-02-18T10:39:19Z</time>
      </trkpt>
      <trkpt lat="42.92575" lon="0.11533">
        <ele>2231</ele>
        <time>2017-02-18T10:41:18Z</time>
      </trkpt>
      <trkpt lat="42.92587" lon="0.11532">
        <ele>2231</ele>
        <time>2017-02-18T10:41:48Z</time>
      </trkpt>
      <trkpt lat="42.92612" lon="0.11528">
        <ele>2230</ele>
        <time>2017-02-18T10:42:22Z</time>
      </trkpt>
      <trkpt lat="42.92637" lon="0.11525">
        <ele>2229</ele>
        <time>2017-02-18T10:42:53Z</time>
      </trkpt>
      <trkpt lat="42.92665" lon="0.11523">
        <ele>2229</ele>
        <time>2017-02-18T10:43:26Z</time>
      </trkpt>
      <trkpt lat="42.92685" lon="0.11525">
        <ele>2233</ele>
        <time>2017-02-18T10:43:56Z</time>
      </trkpt>
      <trkpt lat="42.92707" lon="0.1152">
        <ele>2238</ele>
        <time>2017-02-18T10:44:30Z</time>
      </trkpt>
      <trkpt lat="42.9272" lon="0.11516">
        <ele>2244</ele>
        <time>2017-02-18T10:44:54Z</time>
      </trkpt>
      <trkpt lat="42.92739" lon="0.11505">
        <ele>2250</ele>
        <time>2017-02-18T10:45:27Z</time>
      </trkpt>
      <trkpt lat="42.92742" lon="0.11505">
        <ele>2251</ele>
        <time>2017-02-18T10:45:31Z</time>
      </trkpt>
      <trkpt lat="42.92761" lon="0.11493">
        <ele>2255</ele>
        <time>2017-02-18T10:46:02Z</time>
      </trkpt>
      <trkpt lat="42.92779" lon="0.11489">
        <ele>2258</ele>
        <time>2017-02-18T10:46:35Z</time>
      </trkpt>
      <trkpt lat="42.92799" lon="0.11487">
        <ele>2259</ele>
        <time>2017-02-18T10:47:06Z</time>
      </trkpt>
      <trkpt lat="42.92819" lon="0.11478">
        <ele>2264</ele>
        <time>2017-02-18T10:47:42Z</time>
      </trkpt>
      <trkpt lat="42.92836" lon="0.11471">
        <ele>2267</ele>
        <time>2017-02-18T10:48:13Z</time>
      </trkpt>
      <trkpt lat="42.92854" lon="0.11465">
        <ele>2269</ele>
        <time>2017-02-18T10:48:43Z</time>
      </trkpt>
      <trkpt lat="42.92875" lon="0.11462">
        <ele>2271</ele>
        <time>2017-02-18T10:49:15Z</time>
      </trkpt>
      <trkpt lat="42.9289" lon="0.11458">
        <ele>2274</ele>
        <time>2017-02-18T10:49:45Z</time>
      </trkpt>
      <trkpt lat="42.92905" lon="0.11452">
        <ele>2276</ele>
        <time>2017-02-18T10:50:09Z</time>
      </trkpt>
      <trkpt lat="42.92925" lon="0.11442">
        <ele>2277</ele>
        <time>2017-02-18T10:50:42Z</time>
      </trkpt>
      <trkpt lat="42.92936" lon="0.11436">
        <ele>2277</ele>
        <time>2017-02-18T10:51:01Z</time>
      </trkpt>
      <trkpt lat="42.9295" lon="0.11428">
        <ele>2277</ele>
        <time>2017-02-18T10:51:24Z</time>
      </trkpt>
      <trkpt lat="42.92964" lon="0.1143">
        <ele>2281</ele>
        <time>2017-02-18T10:51:56Z</time>
      </trkpt>
      <trkpt lat="42.92979" lon="0.11434">
        <ele>2284</ele>
        <time>2017-02-18T10:52:26Z</time>
      </trkpt>
      <trkpt lat="42.92992" lon="0.11437">
        <ele>2286</ele>
        <time>2017-02-18T10:52:49Z</time>
      </trkpt>
      <trkpt lat="42.92996" lon="0.11442">
        <ele>2287</ele>
        <time>2017-02-18T10:52:59Z</time>
      </trkpt>
      <trkpt lat="42.92997" lon="0.11438">
        <ele>2288</ele>
        <time>2017-02-18T10:53:16Z</time>
      </trkpt>
      <trkpt lat="42.92996" lon="0.11434">
        <ele>2289</ele>
        <time>2017-02-18T10:53:23Z</time>
      </trkpt>
      <trkpt lat="42.92996" lon="0.1143">
        <ele>2292</ele>
        <time>2017-02-18T10:53:29Z</time>
      </trkpt>
      <trkpt lat="42.9299" lon="0.11416">
        <ele>2299</ele>
        <time>2017-02-18T10:54:30Z</time>
      </trkpt>
      <trkpt lat="42.92989" lon="0.11412">
        <ele>2299</ele>
        <time>2017-02-18T10:54:35Z</time>
      </trkpt>
      <trkpt lat="42.92985" lon="0.11402">
        <ele>2299</ele>
        <time>2017-02-18T10:54:49Z</time>
      </trkpt>
      <trkpt lat="42.92983" lon="0.11399">
        <ele>2300</ele>
        <time>2017-02-18T10:54:54Z</time>
      </trkpt>
      <trkpt lat="42.92983" lon="0.11396">
        <ele>2301</ele>
        <time>2017-02-18T10:55:13Z</time>
      </trkpt>
      <trkpt lat="42.92986" lon="0.11395">
        <ele>2301</ele>
        <time>2017-02-18T10:55:17Z</time>
      </trkpt>
      <trkpt lat="42.93001" lon="0.11394">
        <ele>2301</ele>
        <time>2017-02-18T10:55:42Z</time>
      </trkpt>
      <trkpt lat="42.93001" lon="0.11398">
        <ele>2302</ele>
        <time>2017-02-18T10:55:51Z</time>
      </trkpt>
      <trkpt lat="42.93014" lon="0.11399">
        <ele>2304</ele>
        <time>2017-02-18T10:56:14Z</time>
      </trkpt>
      <trkpt lat="42.93025" lon="0.11408">
        <ele>2308</ele>
        <time>2017-02-18T10:56:37Z</time>
      </trkpt>
      <trkpt lat="42.93031" lon="0.11413">
        <ele>2308</ele>
        <time>2017-02-18T10:56:48Z</time>
      </trkpt>
      <trkpt lat="42.93034" lon="0.1142">
        <ele>2308</ele>
        <time>2017-02-18T10:57:00Z</time>
      </trkpt>
      <trkpt lat="42.9304" lon="0.1143">
        <ele>2313</ele>
        <time>2017-02-18T10:57:31Z</time>
      </trkpt>
      <trkpt lat="42.93053" lon="0.11449">
        <ele>2313</ele>
        <time>2017-02-18T10:58:03Z</time>
      </trkpt>
      <trkpt lat="42.93055" lon="0.11452">
        <ele>2314</ele>
        <time>2017-02-18T10:58:09Z</time>
      </trkpt>
      <trkpt lat="42.93053" lon="0.11456">
        <ele>2315</ele>
        <time>2017-02-18T10:58:12Z</time>
      </trkpt>
      <trkpt lat="42.93055" lon="0.11459">
        <ele>2317</ele>
        <time>2017-02-18T10:58:29Z</time>
      </trkpt>
      <trkpt lat="42.9306" lon="0.11464">
        <ele>2319</ele>
        <time>2017-02-18T10:58:40Z</time>
      </trkpt>
      <trkpt lat="42.93066" lon="0.11473">
        <ele>2322</ele>
        <time>2017-02-18T10:58:57Z</time>
      </trkpt>
      <trkpt lat="42.93065" lon="0.11477">
        <ele>2322</ele>
        <time>2017-02-18T10:59:10Z</time>
      </trkpt>
      <trkpt lat="42.93071" lon="0.1148">
        <ele>2328</ele>
        <time>2017-02-18T10:59:42Z</time>
      </trkpt>
      <trkpt lat="42.93073" lon="0.1148">
        <ele>2329</ele>
        <time>2017-02-18T11:00:06Z</time>
      </trkpt>
      <trkpt lat="42.93073" lon="0.11476">
        <ele>2329</ele>
        <time>2017-02-18T11:00:12Z</time>
      </trkpt>
      <trkpt lat="42.93075" lon="0.11456">
        <ele>2336</ele>
        <time>2017-02-18T11:00:42Z</time>
      </trkpt>
      <trkpt lat="42.93076" lon="0.11453">
        <ele>2336</ele>
        <time>2017-02-18T11:00:50Z</time>
      </trkpt>
      <trkpt lat="42.93076" lon="0.11445">
        <ele>2340</ele>
        <time>2017-02-18T11:01:15Z</time>
      </trkpt>
      <trkpt lat="42.93079" lon="0.11425">
        <ele>2344</ele>
        <time>2017-02-18T11:01:46Z</time>
      </trkpt>
      <trkpt lat="42.93079" lon="0.1142">
        <ele>2344</ele>
        <time>2017-02-18T11:02:12Z</time>
      </trkpt>
      <trkpt lat="42.93085" lon="0.11398">
        <ele>2347</ele>
        <time>2017-02-18T11:03:05Z</time>
      </trkpt>
      <trkpt lat="42.9309" lon="0.11375">
        <ele>2351</ele>
        <time>2017-02-18T11:03:37Z</time>
      </trkpt>
      <trkpt lat="42.93091" lon="0.11367">
        <ele>2353</ele>
        <time>2017-02-18T11:03:51Z</time>
      </trkpt>
      <trkpt lat="42.9309" lon="0.11363">
        <ele>2354</ele>
        <time>2017-02-18T11:03:57Z</time>
      </trkpt>
      <trkpt lat="42.93089" lon="0.11359">
        <ele>2356</ele>
        <time>2017-02-18T11:04:23Z</time>
      </trkpt>
      <trkpt lat="42.93091" lon="0.11347">
        <ele>2358</ele>
        <time>2017-02-18T11:04:41Z</time>
      </trkpt>
      <trkpt lat="42.93092" lon="0.11344">
        <ele>2359</ele>
        <time>2017-02-18T11:04:47Z</time>
      </trkpt>
      <trkpt lat="42.9309" lon="0.11339">
        <ele>2360</ele>
        <time>2017-02-18T11:05:33Z</time>
      </trkpt>
      <trkpt lat="42.93095" lon="0.11323">
        <ele>2363</ele>
        <time>2017-02-18T11:06:05Z</time>
      </trkpt>
      <trkpt lat="42.93098" lon="0.11317">
        <ele>2365</ele>
        <time>2017-02-18T11:06:14Z</time>
      </trkpt>
      <trkpt lat="42.93099" lon="0.11314">
        <ele>2365</ele>
        <time>2017-02-18T11:06:18Z</time>
      </trkpt>
      <trkpt lat="42.931" lon="0.11309">
        <ele>2367</ele>
        <time>2017-02-18T11:06:24Z</time>
      </trkpt>
      <trkpt lat="42.931" lon="0.11306">
        <ele>2367</ele>
        <time>2017-02-18T11:06:29Z</time>
      </trkpt>
      <trkpt lat="42.931" lon="0.11302">
        <ele>2368</ele>
        <time>2017-02-18T11:07:10Z</time>
      </trkpt>
      <trkpt lat="42.93096" lon="0.11292">
        <ele>2372</ele>
        <time>2017-02-18T11:07:39Z</time>
      </trkpt>
      <trkpt lat="42.93093" lon="0.11289">
        <ele>2375</ele>
        <time>2017-02-18T11:07:53Z</time>
      </trkpt>
      <trkpt lat="42.93099" lon="0.11288">
        <ele>2374</ele>
        <time>2017-02-18T11:09:51Z</time>
      </trkpt>
      <trkpt lat="42.93107" lon="0.11288">
        <ele>2375</ele>
        <time>2017-02-18T11:10:04Z</time>
      </trkpt>
      <trkpt lat="42.93108" lon="0.11284">
        <ele>2375</ele>
        <time>2017-02-18T11:10:37Z</time>
      </trkpt>
      <trkpt lat="42.93108" lon="0.11276">
        <ele>2377</ele>
        <time>2017-02-18T11:10:52Z</time>
      </trkpt>
      <trkpt lat="42.93105" lon="0.11275">
        <ele>2379</ele>
        <time>2017-02-18T11:11:04Z</time>
      </trkpt>
      <trkpt lat="42.93104" lon="0.11278">
        <ele>2380</ele>
        <time>2017-02-18T11:11:19Z</time>
      </trkpt>
      <trkpt lat="42.93107" lon="0.11278">
        <ele>2381</ele>
        <time>2017-02-18T11:11:32Z</time>
      </trkpt>
      <trkpt lat="42.93113" lon="0.1128">
        <ele>2384</ele>
        <time>2017-02-18T11:11:43Z</time>
      </trkpt>
      <trkpt lat="42.93113" lon="0.11276">
        <ele>2387</ele>
        <time>2017-02-18T11:12:44Z</time>
      </trkpt>
      <trkpt lat="42.93112" lon="0.11272">
        <ele>2391</ele>
        <time>2017-02-18T11:12:59Z</time>
      </trkpt>
      <trkpt lat="42.93115" lon="0.11271">
        <ele>2392</ele>
        <time>2017-02-18T11:13:25Z</time>
      </trkpt>
      <trkpt lat="42.93118" lon="0.11273">
        <ele>2392</ele>
        <time>2017-02-18T11:13:38Z</time>
      </trkpt>
      <trkpt lat="42.93121" lon="0.11275">
        <ele>2394</ele>
        <time>2017-02-18T11:13:44Z</time>
      </trkpt>
      <trkpt lat="42.9312" lon="0.11275">
        <ele>2394</ele>
        <time>2017-02-18T11:14:26Z</time>
      </trkpt>
      <trkpt lat="42.93117" lon="0.11267">
        <ele>2394</ele>
        <time>2017-02-18T11:15:54Z</time>
      </trkpt>
      <trkpt lat="42.93112" lon="0.11265">
        <ele>2393</ele>
        <time>2017-02-18T11:16:14Z</time>
      </trkpt>
      <trkpt lat="42.93109" lon="0.11261">
        <ele>2393</ele>
        <time>2017-02-18T11:16:27Z</time>
      </trkpt>
      <trkpt lat="42.9311" lon="0.11258">
        <ele>2393</ele>
        <time>2017-02-18T11:16:37Z</time>
      </trkpt>
      <trkpt lat="42.93111" lon="0.11255">
        <ele>2392</ele>
        <time>2017-02-18T11:19:30Z</time>
      </trkpt>
      <trkpt lat="42.93111" lon="0.11255">
        <ele>2394</ele>
        <time>2017-02-18T11:25:43Z</time>
      </trkpt>
      <trkpt lat="42.93112" lon="0.11259">
        <ele>2393</ele>
        <time>2017-02-18T11:30:34Z</time>
      </trkpt>
      <trkpt lat="42.93114" lon="0.11262">
        <ele>2393</ele>
        <time>2017-02-18T11:31:08Z</time>
      </trkpt>
      <trkpt lat="42.93121" lon="0.11277">
        <ele>2390</ele>
        <time>2017-02-18T11:31:39Z</time>
      </trkpt>
      <trkpt lat="42.93118" lon="0.11277">
        <ele>2388</ele>
        <time>2017-02-18T11:31:43Z</time>
      </trkpt>
      <trkpt lat="42.93112" lon="0.11272">
        <ele>2386</ele>
        <time>2017-02-18T11:31:47Z</time>
      </trkpt>
      <trkpt lat="42.93113" lon="0.11278">
        <ele>2385</ele>
        <time>2017-02-18T11:31:49Z</time>
      </trkpt>
      <trkpt lat="42.93113" lon="0.11283">
        <ele>2383</ele>
        <time>2017-02-18T11:32:44Z</time>
      </trkpt>
      <trkpt lat="42.93115" lon="0.11311">
        <ele>2376</ele>
        <time>2017-02-18T11:32:54Z</time>
      </trkpt>
      <trkpt lat="42.93115" lon="0.11315">
        <ele>2375</ele>
        <time>2017-02-18T11:32:57Z</time>
      </trkpt>
      <trkpt lat="42.93112" lon="0.11314">
        <ele>2373</ele>
        <time>2017-02-18T11:32:59Z</time>
      </trkpt>
      <trkpt lat="42.93109" lon="0.11311">
        <ele>2371</ele>
        <time>2017-02-18T11:33:01Z</time>
      </trkpt>
      <trkpt lat="42.93108" lon="0.11307">
        <ele>2369</ele>
        <time>2017-02-18T11:33:07Z</time>
      </trkpt>
      <trkpt lat="42.93105" lon="0.11309">
        <ele>2368</ele>
        <time>2017-02-18T11:33:10Z</time>
      </trkpt>
      <trkpt lat="42.93106" lon="0.11314">
        <ele>2366</ele>
        <time>2017-02-18T11:33:12Z</time>
      </trkpt>
      <trkpt lat="42.93102" lon="0.11315">
        <ele>2365</ele>
        <time>2017-02-18T11:33:15Z</time>
      </trkpt>
      <trkpt lat="42.93101" lon="0.11311">
        <ele>2364</ele>
        <time>2017-02-18T11:33:17Z</time>
      </trkpt>
      <trkpt lat="42.93099" lon="0.1131">
        <ele>2363</ele>
        <time>2017-02-18T11:33:20Z</time>
      </trkpt>
      <trkpt lat="42.93099" lon="0.11316">
        <ele>2362</ele>
        <time>2017-02-18T11:33:22Z</time>
      </trkpt>
      <trkpt lat="42.93097" lon="0.11321">
        <ele>2361</ele>
        <time>2017-02-18T11:33:38Z</time>
      </trkpt>
      <trkpt lat="42.93092" lon="0.11317">
        <ele>2360</ele>
        <time>2017-02-18T11:33:40Z</time>
      </trkpt>
      <trkpt lat="42.93089" lon="0.11316">
        <ele>2359</ele>
        <time>2017-02-18T11:33:42Z</time>
      </trkpt>
      <trkpt lat="42.93089" lon="0.1132">
        <ele>2358</ele>
        <time>2017-02-18T11:33:44Z</time>
      </trkpt>
      <trkpt lat="42.93088" lon="0.11329">
        <ele>2357</ele>
        <time>2017-02-18T11:33:50Z</time>
      </trkpt>
      <trkpt lat="42.93085" lon="0.11327">
        <ele>2356</ele>
        <time>2017-02-18T11:33:51Z</time>
      </trkpt>
      <trkpt lat="42.93084" lon="0.11322">
        <ele>2356</ele>
        <time>2017-02-18T11:33:53Z</time>
      </trkpt>
      <trkpt lat="42.93082" lon="0.1132">
        <ele>2354</ele>
        <time>2017-02-18T11:33:56Z</time>
      </trkpt>
      <trkpt lat="42.93078" lon="0.11324">
        <ele>2353</ele>
        <time>2017-02-18T11:34:03Z</time>
      </trkpt>
      <trkpt lat="42.93079" lon="0.1133">
        <ele>2350</ele>
        <time>2017-02-18T11:34:05Z</time>
      </trkpt>
      <trkpt lat="42.93076" lon="0.11337">
        <ele>2346</ele>
        <time>2017-02-18T11:34:22Z</time>
      </trkpt>
      <trkpt lat="42.93076" lon="0.11344">
        <ele>2344</ele>
        <time>2017-02-18T11:34:24Z</time>
      </trkpt>
      <trkpt lat="42.93075" lon="0.11347">
        <ele>2342</ele>
        <time>2017-02-18T11:34:26Z</time>
      </trkpt>
      <trkpt lat="42.93072" lon="0.11344">
        <ele>2341</ele>
        <time>2017-02-18T11:34:28Z</time>
      </trkpt>
      <trkpt lat="42.9307" lon="0.11345">
        <ele>2340</ele>
        <time>2017-02-18T11:34:30Z</time>
      </trkpt>
      <trkpt lat="42.9307" lon="0.11352">
        <ele>2339</ele>
        <time>2017-02-18T11:34:32Z</time>
      </trkpt>
      <trkpt lat="42.93067" lon="0.11354">
        <ele>2337</ele>
        <time>2017-02-18T11:34:43Z</time>
      </trkpt>
      <trkpt lat="42.93065" lon="0.11355">
        <ele>2334</ele>
        <time>2017-02-18T11:34:47Z</time>
      </trkpt>
      <trkpt lat="42.93063" lon="0.11352">
        <ele>2332</ele>
        <time>2017-02-18T11:34:55Z</time>
      </trkpt>
      <trkpt lat="42.9306" lon="0.11356">
        <ele>2330</ele>
        <time>2017-02-18T11:35:14Z</time>
      </trkpt>
      <trkpt lat="42.93061" lon="0.11363">
        <ele>2330</ele>
        <time>2017-02-18T11:35:17Z</time>
      </trkpt>
      <trkpt lat="42.93061" lon="0.11367">
        <ele>2327</ele>
        <time>2017-02-18T11:35:19Z</time>
      </trkpt>
      <trkpt lat="42.93059" lon="0.11369">
        <ele>2326</ele>
        <time>2017-02-18T11:35:21Z</time>
      </trkpt>
      <trkpt lat="42.93056" lon="0.11366">
        <ele>2324</ele>
        <time>2017-02-18T11:35:22Z</time>
      </trkpt>
      <trkpt lat="42.93054" lon="0.11363">
        <ele>2324</ele>
        <time>2017-02-18T11:35:23Z</time>
      </trkpt>
      <trkpt lat="42.9305" lon="0.11359">
        <ele>2323</ele>
        <time>2017-02-18T11:35:25Z</time>
      </trkpt>
      <trkpt lat="42.9305" lon="0.11365">
        <ele>2323</ele>
        <time>2017-02-18T11:35:27Z</time>
      </trkpt>
      <trkpt lat="42.93052" lon="0.11383">
        <ele>2318</ele>
        <time>2017-02-18T11:35:33Z</time>
      </trkpt>
      <trkpt lat="42.93043" lon="0.11374">
        <ele>2316</ele>
        <time>2017-02-18T11:35:34Z</time>
      </trkpt>
      <trkpt lat="42.93037" lon="0.11366">
        <ele>2315</ele>
        <time>2017-02-18T11:35:36Z</time>
      </trkpt>
      <trkpt lat="42.93034" lon="0.11365">
        <ele>2315</ele>
        <time>2017-02-18T11:35:41Z</time>
      </trkpt>
      <trkpt lat="42.9303" lon="0.11367">
        <ele>2316</ele>
        <time>2017-02-18T11:35:59Z</time>
      </trkpt>
      <trkpt lat="42.93024" lon="0.11366">
        <ele>2316</ele>
        <time>2017-02-18T11:36:01Z</time>
      </trkpt>
      <trkpt lat="42.93021" lon="0.11365">
        <ele>2315</ele>
        <time>2017-02-18T11:36:02Z</time>
      </trkpt>
      <trkpt lat="42.93018" lon="0.11364">
        <ele>2314</ele>
        <time>2017-02-18T11:36:08Z</time>
      </trkpt>
      <trkpt lat="42.93016" lon="0.11365">
        <ele>2309</ele>
        <time>2017-02-18T11:37:23Z</time>
      </trkpt>
      <trkpt lat="42.93014" lon="0.11369">
        <ele>2309</ele>
        <time>2017-02-18T11:39:58Z</time>
      </trkpt>
      <trkpt lat="42.93023" lon="0.11385">
        <ele>2306</ele>
        <time>2017-02-18T11:40:04Z</time>
      </trkpt>
      <trkpt lat="42.93018" lon="0.11387">
        <ele>2305</ele>
        <time>2017-02-18T11:40:06Z</time>
      </trkpt>
      <trkpt lat="42.93016" lon="0.11385">
        <ele>2304</ele>
        <time>2017-02-18T11:40:08Z</time>
      </trkpt>
      <trkpt lat="42.9301" lon="0.11384">
        <ele>2303</ele>
        <time>2017-02-18T11:40:12Z</time>
      </trkpt>
      <trkpt lat="42.93009" lon="0.11391">
        <ele>2301</ele>
        <time>2017-02-18T11:40:14Z</time>
      </trkpt>
      <trkpt lat="42.93015" lon="0.11399">
        <ele>2300</ele>
        <time>2017-02-18T11:40:19Z</time>
      </trkpt>
      <trkpt lat="42.93014" lon="0.11406">
        <ele>2297</ele>
        <time>2017-02-18T11:40:21Z</time>
      </trkpt>
      <trkpt lat="42.9301" lon="0.11407">
        <ele>2296</ele>
        <time>2017-02-18T11:40:22Z</time>
      </trkpt>
      <trkpt lat="42.93006" lon="0.11406">
        <ele>2295</ele>
        <time>2017-02-18T11:40:23Z</time>
      </trkpt>
      <trkpt lat="42.93004" lon="0.11404">
        <ele>2294</ele>
        <time>2017-02-18T11:40:24Z</time>
      </trkpt>
      <trkpt lat="42.92994" lon="0.11401">
        <ele>2292</ele>
        <time>2017-02-18T11:40:31Z</time>
      </trkpt>
      <trkpt lat="42.92961" lon="0.11391">
        <ele>2288</ele>
        <time>2017-02-18T11:40:42Z</time>
      </trkpt>
      <trkpt lat="42.92946" lon="0.11397">
        <ele>2286</ele>
        <time>2017-02-18T11:40:48Z</time>
      </trkpt>
      <trkpt lat="42.92912" lon="0.11414">
        <ele>2280</ele>
        <time>2017-02-18T11:40:58Z</time>
      </trkpt>
      <trkpt lat="42.929" lon="0.11418">
        <ele>2277</ele>
        <time>2017-02-18T11:41:02Z</time>
      </trkpt>
      <trkpt lat="42.92891" lon="0.11422">
        <ele>2275</ele>
        <time>2017-02-18T11:41:34Z</time>
      </trkpt>
      <trkpt lat="42.92878" lon="0.11423">
        <ele>2272</ele>
        <time>2017-02-18T11:41:39Z</time>
      </trkpt>
      <trkpt lat="42.92839" lon="0.11433">
        <ele>2265</ele>
        <time>2017-02-18T11:41:48Z</time>
      </trkpt>
      <trkpt lat="42.92811" lon="0.11443">
        <ele>2266</ele>
        <time>2017-02-18T11:42:34Z</time>
      </trkpt>
      <trkpt lat="42.9273" lon="0.11441">
        <ele>2254</ele>
        <time>2017-02-18T11:42:55Z</time>
      </trkpt>
      <trkpt lat="42.92712" lon="0.1143">
        <ele>2252</ele>
        <time>2017-02-18T11:43:02Z</time>
      </trkpt>
      <trkpt lat="42.92681" lon="0.11415">
        <ele>2248</ele>
        <time>2017-02-18T11:43:09Z</time>
      </trkpt>
      <trkpt lat="42.92651" lon="0.1141">
        <ele>2247</ele>
        <time>2017-02-18T11:43:59Z</time>
      </trkpt>
      <trkpt lat="42.92641" lon="0.11406">
        <ele>2244</ele>
        <time>2017-02-18T11:44:02Z</time>
      </trkpt>
      <trkpt lat="42.92631" lon="0.11403">
        <ele>2242</ele>
        <time>2017-02-18T11:44:04Z</time>
      </trkpt>
      <trkpt lat="42.92599" lon="0.11401">
        <ele>2237</ele>
        <time>2017-02-18T11:44:11Z</time>
      </trkpt>
      <trkpt lat="42.92591" lon="0.11407">
        <ele>2236</ele>
        <time>2017-02-18T11:44:16Z</time>
      </trkpt>
      <trkpt lat="42.92577" lon="0.11425">
        <ele>2226</ele>
        <time>2017-02-18T11:44:22Z</time>
      </trkpt>
      <trkpt lat="42.92573" lon="0.11435">
        <ele>2224</ele>
        <time>2017-02-18T11:44:24Z</time>
      </trkpt>
      <trkpt lat="42.92571" lon="0.11449">
        <ele>2220</ele>
        <time>2017-02-18T11:44:28Z</time>
      </trkpt>
      <trkpt lat="42.92566" lon="0.11446">
        <ele>2218</ele>
        <time>2017-02-18T11:44:29Z</time>
      </trkpt>
      <trkpt lat="42.92558" lon="0.11447">
        <ele>2216</ele>
        <time>2017-02-18T11:44:31Z</time>
      </trkpt>
      <trkpt lat="42.92558" lon="0.11452">
        <ele>2215</ele>
        <time>2017-02-18T11:44:32Z</time>
      </trkpt>
      <trkpt lat="42.9256" lon="0.11462">
        <ele>2213</ele>
        <time>2017-02-18T11:44:34Z</time>
      </trkpt>
      <trkpt lat="42.92563" lon="0.11489">
        <ele>2210</ele>
        <time>2017-02-18T11:44:38Z</time>
      </trkpt>
      <trkpt lat="42.92558" lon="0.11503">
        <ele>2206</ele>
        <time>2017-02-18T11:44:41Z</time>
      </trkpt>
      <trkpt lat="42.92555" lon="0.11505">
        <ele>2205</ele>
        <time>2017-02-18T11:44:42Z</time>
      </trkpt>
      <trkpt lat="42.92552" lon="0.11504">
        <ele>2204</ele>
        <time>2017-02-18T11:44:43Z</time>
      </trkpt>
      <trkpt lat="42.92549" lon="0.11509">
        <ele>2203</ele>
        <time>2017-02-18T11:45:22Z</time>
      </trkpt>
      <trkpt lat="42.92544" lon="0.11515">
        <ele>2199</ele>
        <time>2017-02-18T11:45:35Z</time>
      </trkpt>
      <trkpt lat="42.92541" lon="0.11515">
        <ele>2198</ele>
        <time>2017-02-18T11:45:36Z</time>
      </trkpt>
      <trkpt lat="42.92535" lon="0.1151">
        <ele>2196</ele>
        <time>2017-02-18T11:45:38Z</time>
      </trkpt>
      <trkpt lat="42.92532" lon="0.11512">
        <ele>2195</ele>
        <time>2017-02-18T11:45:39Z</time>
      </trkpt>
      <trkpt lat="42.92531" lon="0.11516">
        <ele>2194</ele>
        <time>2017-02-18T11:45:40Z</time>
      </trkpt>
      <trkpt lat="42.92528" lon="0.11519">
        <ele>2193</ele>
        <time>2017-02-18T11:45:41Z</time>
      </trkpt>
      <trkpt lat="42.92525" lon="0.11517">
        <ele>2192</ele>
        <time>2017-02-18T11:45:42Z</time>
      </trkpt>
      <trkpt lat="42.92522" lon="0.11515">
        <ele>2190</ele>
        <time>2017-02-18T11:45:43Z</time>
      </trkpt>
      <trkpt lat="42.92519" lon="0.11516">
        <ele>2189</ele>
        <time>2017-02-18T11:45:44Z</time>
      </trkpt>
      <trkpt lat="42.92515" lon="0.11519">
        <ele>2188</ele>
        <time>2017-02-18T11:45:45Z</time>
      </trkpt>
      <trkpt lat="42.92511" lon="0.11516">
        <ele>2187</ele>
        <time>2017-02-18T11:45:46Z</time>
      </trkpt>
      <trkpt lat="42.92508" lon="0.11514">
        <ele>2186</ele>
        <time>2017-02-18T11:45:47Z</time>
      </trkpt>
      <trkpt lat="42.92505" lon="0.11516">
        <ele>2185</ele>
        <time>2017-02-18T11:45:48Z</time>
      </trkpt>
      <trkpt lat="42.92502" lon="0.11519">
        <ele>2183</ele>
        <time>2017-02-18T11:45:49Z</time>
      </trkpt>
      <trkpt lat="42.92498" lon="0.11517">
        <ele>2183</ele>
        <time>2017-02-18T11:45:50Z</time>
      </trkpt>
      <trkpt lat="42.92495" lon="0.11513">
        <ele>2182</ele>
        <time>2017-02-18T11:45:51Z</time>
      </trkpt>
      <trkpt lat="42.92491" lon="0.11514">
        <ele>2181</ele>
        <time>2017-02-18T11:45:52Z</time>
      </trkpt>
      <trkpt lat="42.92484" lon="0.1152">
        <ele>2178</ele>
        <time>2017-02-18T11:45:54Z</time>
      </trkpt>
      <trkpt lat="42.92473" lon="0.11521">
        <ele>2174</ele>
        <time>2017-02-18T11:45:56Z</time>
      </trkpt>
      <trkpt lat="42.92431" lon="0.11532">
        <ele>2167</ele>
        <time>2017-02-18T11:46:02Z</time>
      </trkpt>
      <trkpt lat="42.92369" lon="0.11549">
        <ele>2159</ele>
        <time>2017-02-18T11:46:14Z</time>
      </trkpt>
      <trkpt lat="42.9236" lon="0.11553">
        <ele>2157</ele>
        <time>2017-02-18T11:46:16Z</time>
      </trkpt>
      <trkpt lat="42.92356" lon="0.11551">
        <ele>2155</ele>
        <time>2017-02-18T11:46:17Z</time>
      </trkpt>
      <trkpt lat="42.92352" lon="0.11551">
        <ele>2155</ele>
        <time>2017-02-18T11:46:18Z</time>
      </trkpt>
      <trkpt lat="42.92348" lon="0.11553">
        <ele>2154</ele>
        <time>2017-02-18T11:46:19Z</time>
      </trkpt>
      <trkpt lat="42.92339" lon="0.11554">
        <ele>2153</ele>
        <time>2017-02-18T11:46:21Z</time>
      </trkpt>
      <trkpt lat="42.92335" lon="0.11556">
        <ele>2152</ele>
        <time>2017-02-18T11:46:22Z</time>
      </trkpt>
      <trkpt lat="42.9233" lon="0.11566">
        <ele>2150</ele>
        <time>2017-02-18T11:46:24Z</time>
      </trkpt>
      <trkpt lat="42.92323" lon="0.11567">
        <ele>2149</ele>
        <time>2017-02-18T11:46:26Z</time>
      </trkpt>
      <trkpt lat="42.9231" lon="0.11565">
        <ele>2145</ele>
        <time>2017-02-18T11:46:29Z</time>
      </trkpt>
      <trkpt lat="42.92309" lon="0.11569">
        <ele>2145</ele>
        <time>2017-02-18T11:46:30Z</time>
      </trkpt>
      <trkpt lat="42.92306" lon="0.11572">
        <ele>2143</ele>
        <time>2017-02-18T11:46:31Z</time>
      </trkpt>
      <trkpt lat="42.92304" lon="0.11574">
        <ele>2148</ele>
        <time>2017-02-18T11:47:08Z</time>
      </trkpt>
      <trkpt lat="42.9231" lon="0.11589">
        <ele>2150</ele>
        <time>2017-02-18T11:47:13Z</time>
      </trkpt>
      <trkpt lat="42.92316" lon="0.11612">
        <ele>2147</ele>
        <time>2017-02-18T11:47:18Z</time>
      </trkpt>
      <trkpt lat="42.92321" lon="0.11629">
        <ele>2147</ele>
        <time>2017-02-18T11:47:27Z</time>
      </trkpt>
      <trkpt lat="42.9234" lon="0.1169">
        <ele>2143</ele>
        <time>2017-02-18T11:47:55Z</time>
      </trkpt>
      <trkpt lat="42.92339" lon="0.11709">
        <ele>2143</ele>
        <time>2017-02-18T11:48:33Z</time>
      </trkpt>
      <trkpt lat="42.9234" lon="0.11715">
        <ele>2141</ele>
        <time>2017-02-18T11:48:35Z</time>
      </trkpt>
      <trkpt lat="42.9234" lon="0.11727">
        <ele>2140</ele>
        <time>2017-02-18T11:49:09Z</time>
      </trkpt>
      <trkpt lat="42.92341" lon="0.11742">
        <ele>2136</ele>
        <time>2017-02-18T11:49:18Z</time>
      </trkpt>
      <trkpt lat="42.92337" lon="0.11807">
        <ele>2128</ele>
        <time>2017-02-18T11:49:48Z</time>
      </trkpt>
      <trkpt lat="42.92335" lon="0.11828">
        <ele>2126</ele>
        <time>2017-02-18T11:49:58Z</time>
      </trkpt>
      <trkpt lat="42.92329" lon="0.11851">
        <ele>2122</ele>
        <time>2017-02-18T11:50:10Z</time>
      </trkpt>
      <trkpt lat="42.92314" lon="0.11887">
        <ele>2119</ele>
        <time>2017-02-18T11:50:22Z</time>
      </trkpt>
      <trkpt lat="42.923" lon="0.11905">
        <ele>2115</ele>
        <time>2017-02-18T11:50:29Z</time>
      </trkpt>
      <trkpt lat="42.92295" lon="0.1191">
        <ele>2114</ele>
        <time>2017-02-18T11:50:32Z</time>
      </trkpt>
      <trkpt lat="42.9229" lon="0.11912">
        <ele>2115</ele>
        <time>2017-02-18T11:50:41Z</time>
      </trkpt>
      <trkpt lat="42.92269" lon="0.1191">
        <ele>2113</ele>
        <time>2017-02-18T11:50:49Z</time>
      </trkpt>
      <trkpt lat="42.92253" lon="0.11905">
        <ele>2113</ele>
        <time>2017-02-18T11:51:08Z</time>
      </trkpt>
      <trkpt lat="42.92243" lon="0.11908">
        <ele>2113</ele>
        <time>2017-02-18T11:51:27Z</time>
      </trkpt>
      <trkpt lat="42.92231" lon="0.11915">
        <ele>2110</ele>
        <time>2017-02-18T11:51:31Z</time>
      </trkpt>
      <trkpt lat="42.92205" lon="0.11943">
        <ele>2106</ele>
        <time>2017-02-18T11:51:42Z</time>
      </trkpt>
      <trkpt lat="42.92202" lon="0.11943">
        <ele>2106</ele>
        <time>2017-02-18T11:51:43Z</time>
      </trkpt>
      <trkpt lat="42.92201" lon="0.11939">
        <ele>2105</ele>
        <time>2017-02-18T11:51:44Z</time>
      </trkpt>
      <trkpt lat="42.92201" lon="0.11934">
        <ele>2105</ele>
        <time>2017-02-18T11:51:45Z</time>
      </trkpt>
      <trkpt lat="42.92198" lon="0.11931">
        <ele>2103</ele>
        <time>2017-02-18T11:51:46Z</time>
      </trkpt>
      <trkpt lat="42.92195" lon="0.11932">
        <ele>2103</ele>
        <time>2017-02-18T11:51:47Z</time>
      </trkpt>
      <trkpt lat="42.92191" lon="0.1193">
        <ele>2101</ele>
        <time>2017-02-18T11:51:48Z</time>
      </trkpt>
      <trkpt lat="42.92188" lon="0.11925">
        <ele>2100</ele>
        <time>2017-02-18T11:51:49Z</time>
      </trkpt>
      <trkpt lat="42.92182" lon="0.11924">
        <ele>2099</ele>
        <time>2017-02-18T11:51:50Z</time>
      </trkpt>
      <trkpt lat="42.92178" lon="0.11924">
        <ele>2099</ele>
        <time>2017-02-18T11:51:51Z</time>
      </trkpt>
      <trkpt lat="42.9217" lon="0.11917">
        <ele>2098</ele>
        <time>2017-02-18T11:51:53Z</time>
      </trkpt>
      <trkpt lat="42.92161" lon="0.11908">
        <ele>2096</ele>
        <time>2017-02-18T11:51:55Z</time>
      </trkpt>
      <trkpt lat="42.92157" lon="0.11908">
        <ele>2095</ele>
        <time>2017-02-18T11:51:56Z</time>
      </trkpt>
      <trkpt lat="42.92155" lon="0.11905">
        <ele>2094</ele>
        <time>2017-02-18T11:51:57Z</time>
      </trkpt>
      <trkpt lat="42.92152" lon="0.11903">
        <ele>2097</ele>
        <time>2017-02-18T11:52:04Z</time>
      </trkpt>
      <trkpt lat="42.92153" lon="0.11897">
        <ele>2102</ele>
        <time>2017-02-18T11:52:27Z</time>
      </trkpt>
      <trkpt lat="42.92146" lon="0.11895">
        <ele>2105</ele>
        <time>2017-02-18T11:53:29Z</time>
      </trkpt>
      <trkpt lat="42.92139" lon="0.1189">
        <ele>2103</ele>
        <time>2017-02-18T11:53:31Z</time>
      </trkpt>
      <trkpt lat="42.92135" lon="0.11884">
        <ele>2101</ele>
        <time>2017-02-18T11:53:33Z</time>
      </trkpt>
      <trkpt lat="42.92077" lon="0.11844">
        <ele>2085</ele>
        <time>2017-02-18T11:53:47Z</time>
      </trkpt>
      <trkpt lat="42.92072" lon="0.11841">
        <ele>2084</ele>
        <time>2017-02-18T11:53:48Z</time>
      </trkpt>
      <trkpt lat="42.92062" lon="0.1184">
        <ele>2082</ele>
        <time>2017-02-18T11:53:50Z</time>
      </trkpt>
      <trkpt lat="42.92055" lon="0.11843">
        <ele>2081</ele>
        <time>2017-02-18T11:53:53Z</time>
      </trkpt>
      <trkpt lat="42.92053" lon="0.11845">
        <ele>2081</ele>
        <time>2017-02-18T11:53:56Z</time>
      </trkpt>
      <trkpt lat="42.9205" lon="0.1184">
        <ele>2082</ele>
        <time>2017-02-18T11:54:05Z</time>
      </trkpt>
      <trkpt lat="42.9205" lon="0.11833">
        <ele>2081</ele>
        <time>2017-02-18T11:54:07Z</time>
      </trkpt>
      <trkpt lat="42.92054" lon="0.11822">
        <ele>2078</ele>
        <time>2017-02-18T11:54:11Z</time>
      </trkpt>
      <trkpt lat="42.92053" lon="0.11818">
        <ele>2076</ele>
        <time>2017-02-18T11:54:12Z</time>
      </trkpt>
      <trkpt lat="42.92048" lon="0.11817">
        <ele>2075</ele>
        <time>2017-02-18T11:54:13Z</time>
      </trkpt>
      <trkpt lat="42.92041" lon="0.11816">
        <ele>2073</ele>
        <time>2017-02-18T11:54:15Z</time>
      </trkpt>
      <trkpt lat="42.92037" lon="0.11818">
        <ele>2071</ele>
        <time>2017-02-18T11:54:17Z</time>
      </trkpt>
      <trkpt lat="42.92034" lon="0.11816">
        <ele>2070</ele>
        <time>2017-02-18T11:54:18Z</time>
      </trkpt>
      <trkpt lat="42.92033" lon="0.11812">
        <ele>2069</ele>
        <time>2017-02-18T11:54:19Z</time>
      </trkpt>
      <trkpt lat="42.92032" lon="0.11808">
        <ele>2068</ele>
        <time>2017-02-18T11:54:20Z</time>
      </trkpt>
      <trkpt lat="42.92029" lon="0.11805">
        <ele>2067</ele>
        <time>2017-02-18T11:54:21Z</time>
      </trkpt>
      <trkpt lat="42.9202" lon="0.11806">
        <ele>2064</ele>
        <time>2017-02-18T11:54:23Z</time>
      </trkpt>
      <trkpt lat="42.92009" lon="0.11798">
        <ele>2062</ele>
        <time>2017-02-18T11:54:25Z</time>
      </trkpt>
      <trkpt lat="42.91999" lon="0.1179">
        <ele>2061</ele>
        <time>2017-02-18T11:54:27Z</time>
      </trkpt>
      <trkpt lat="42.91993" lon="0.11778">
        <ele>2059</ele>
        <time>2017-02-18T11:54:29Z</time>
      </trkpt>
      <trkpt lat="42.91991" lon="0.11777">
        <ele>2058</ele>
        <time>2017-02-18T11:54:30Z</time>
      </trkpt>
      <trkpt lat="42.91985" lon="0.11777">
        <ele>2057</ele>
        <time>2017-02-18T11:54:32Z</time>
      </trkpt>
      <trkpt lat="42.91957" lon="0.11779">
        <ele>2051</ele>
        <time>2017-02-18T11:54:38Z</time>
      </trkpt>
      <trkpt lat="42.9193" lon="0.11778">
        <ele>2046</ele>
        <time>2017-02-18T11:54:47Z</time>
      </trkpt>
      <trkpt lat="42.91927" lon="0.11779">
        <ele>2045</ele>
        <time>2017-02-18T11:54:49Z</time>
      </trkpt>
      <trkpt lat="42.91923" lon="0.1178">
        <ele>2048</ele>
        <time>2017-02-18T11:55:10Z</time>
      </trkpt>
      <trkpt lat="42.91915" lon="0.11786">
        <ele>2046</ele>
        <time>2017-02-18T11:55:14Z</time>
      </trkpt>
      <trkpt lat="42.91912" lon="0.11784">
        <ele>2045</ele>
        <time>2017-02-18T11:55:15Z</time>
      </trkpt>
      <trkpt lat="42.91911" lon="0.11779">
        <ele>2043</ele>
        <time>2017-02-18T11:55:16Z</time>
      </trkpt>
      <trkpt lat="42.91912" lon="0.11775">
        <ele>2043</ele>
        <time>2017-02-18T11:55:17Z</time>
      </trkpt>
      <trkpt lat="42.9191" lon="0.11772">
        <ele>2042</ele>
        <time>2017-02-18T11:55:18Z</time>
      </trkpt>
      <trkpt lat="42.91907" lon="0.11773">
        <ele>2040</ele>
        <time>2017-02-18T11:55:19Z</time>
      </trkpt>
      <trkpt lat="42.91904" lon="0.11774">
        <ele>2039</ele>
        <time>2017-02-18T11:55:20Z</time>
      </trkpt>
      <trkpt lat="42.91896" lon="0.11769">
        <ele>2037</ele>
        <time>2017-02-18T11:55:22Z</time>
      </trkpt>
      <trkpt lat="42.91892" lon="0.11772">
        <ele>2035</ele>
        <time>2017-02-18T11:55:23Z</time>
      </trkpt>
      <trkpt lat="42.91885" lon="0.11778">
        <ele>2032</ele>
        <time>2017-02-18T11:55:26Z</time>
      </trkpt>
      <trkpt lat="42.91881" lon="0.11769">
        <ele>2030</ele>
        <time>2017-02-18T11:55:27Z</time>
      </trkpt>
      <trkpt lat="42.91867" lon="0.11746">
        <ele>2028</ele>
        <time>2017-02-18T11:55:32Z</time>
      </trkpt>
      <trkpt lat="42.91864" lon="0.11747">
        <ele>2028</ele>
        <time>2017-02-18T11:55:33Z</time>
      </trkpt>
      <trkpt lat="42.91861" lon="0.11754">
        <ele>2026</ele>
        <time>2017-02-18T11:55:35Z</time>
      </trkpt>
      <trkpt lat="42.91858" lon="0.11752">
        <ele>2025</ele>
        <time>2017-02-18T11:55:36Z</time>
      </trkpt>
      <trkpt lat="42.91855" lon="0.11753">
        <ele>2023</ele>
        <time>2017-02-18T11:55:37Z</time>
      </trkpt>
      <trkpt lat="42.91851" lon="0.11758">
        <ele>2022</ele>
        <time>2017-02-18T11:55:39Z</time>
      </trkpt>
      <trkpt lat="42.91847" lon="0.11757">
        <ele>2021</ele>
        <time>2017-02-18T11:55:40Z</time>
      </trkpt>
      <trkpt lat="42.9184" lon="0.1176">
        <ele>2019</ele>
        <time>2017-02-18T11:55:42Z</time>
      </trkpt>
      <trkpt lat="42.91837" lon="0.11757">
        <ele>2018</ele>
        <time>2017-02-18T11:55:43Z</time>
      </trkpt>
      <trkpt lat="42.91833" lon="0.11753">
        <ele>2017</ele>
        <time>2017-02-18T11:55:44Z</time>
      </trkpt>
      <trkpt lat="42.91822" lon="0.11746">
        <ele>2014</ele>
        <time>2017-02-18T11:55:46Z</time>
      </trkpt>
      <trkpt lat="42.91805" lon="0.11743">
        <ele>2013</ele>
        <time>2017-02-18T11:55:50Z</time>
      </trkpt>
      <trkpt lat="42.91798" lon="0.11743">
        <ele>2012</ele>
        <time>2017-02-18T11:55:52Z</time>
      </trkpt>
      <trkpt lat="42.91794" lon="0.11742">
        <ele>2012</ele>
        <time>2017-02-18T11:55:55Z</time>
      </trkpt>
      <trkpt lat="42.91791" lon="0.1174">
        <ele>2016</ele>
        <time>2017-02-18T11:56:19Z</time>
      </trkpt>
      <trkpt lat="42.91787" lon="0.11736">
        <ele>2016</ele>
        <time>2017-02-18T11:56:21Z</time>
      </trkpt>
      <trkpt lat="42.91783" lon="0.1174">
        <ele>2013</ele>
        <time>2017-02-18T11:56:23Z</time>
      </trkpt>
      <trkpt lat="42.9178" lon="0.11738">
        <ele>2012</ele>
        <time>2017-02-18T11:56:24Z</time>
      </trkpt>
      <trkpt lat="42.91777" lon="0.11736">
        <ele>2010</ele>
        <time>2017-02-18T11:56:26Z</time>
      </trkpt>
      <trkpt lat="42.91773" lon="0.1174">
        <ele>2007</ele>
        <time>2017-02-18T11:56:28Z</time>
      </trkpt>
      <trkpt lat="42.91771" lon="0.11738">
        <ele>2006</ele>
        <time>2017-02-18T11:56:29Z</time>
      </trkpt>
      <trkpt lat="42.91768" lon="0.11737">
        <ele>2004</ele>
        <time>2017-02-18T11:56:30Z</time>
      </trkpt>
      <trkpt lat="42.91765" lon="0.1174">
        <ele>2003</ele>
        <time>2017-02-18T11:56:31Z</time>
      </trkpt>
      <trkpt lat="42.91763" lon="0.11743">
        <ele>2001</ele>
        <time>2017-02-18T11:56:32Z</time>
      </trkpt>
      <trkpt lat="42.9176" lon="0.11741">
        <ele>2000</ele>
        <time>2017-02-18T11:56:33Z</time>
      </trkpt>
      <trkpt lat="42.91757" lon="0.11738">
        <ele>1998</ele>
        <time>2017-02-18T11:56:34Z</time>
      </trkpt>
      <trkpt lat="42.91754" lon="0.1174">
        <ele>1997</ele>
        <time>2017-02-18T11:56:35Z</time>
      </trkpt>
      <trkpt lat="42.91753" lon="0.11744">
        <ele>1996</ele>
        <time>2017-02-18T11:56:36Z</time>
      </trkpt>
      <trkpt lat="42.9175" lon="0.11747">
        <ele>1995</ele>
        <time>2017-02-18T11:56:37Z</time>
      </trkpt>
      <trkpt lat="42.91747" lon="0.11745">
        <ele>1993</ele>
        <time>2017-02-18T11:56:38Z</time>
      </trkpt>
      <trkpt lat="42.91745" lon="0.11742">
        <ele>1992</ele>
        <time>2017-02-18T11:56:39Z</time>
      </trkpt>
      <trkpt lat="42.91742" lon="0.11744">
        <ele>1990</ele>
        <time>2017-02-18T11:56:40Z</time>
      </trkpt>
      <trkpt lat="42.91739" lon="0.11751">
        <ele>1988</ele>
        <time>2017-02-18T11:56:42Z</time>
      </trkpt>
      <trkpt lat="42.91736" lon="0.11748">
        <ele>1987</ele>
        <time>2017-02-18T11:56:43Z</time>
      </trkpt>
      <trkpt lat="42.91734" lon="0.11745">
        <ele>1986</ele>
        <time>2017-02-18T11:56:44Z</time>
      </trkpt>
      <trkpt lat="42.9173" lon="0.11744">
        <ele>1984</ele>
        <time>2017-02-18T11:56:45Z</time>
      </trkpt>
      <trkpt lat="42.91728" lon="0.11748">
        <ele>1982</ele>
        <time>2017-02-18T11:56:46Z</time>
      </trkpt>
      <trkpt lat="42.91727" lon="0.11756">
        <ele>1981</ele>
        <time>2017-02-18T11:56:48Z</time>
      </trkpt>
      <trkpt lat="42.91724" lon="0.11758">
        <ele>1980</ele>
        <time>2017-02-18T11:56:49Z</time>
      </trkpt>
      <trkpt lat="42.9172" lon="0.11756">
        <ele>1978</ele>
        <time>2017-02-18T11:56:50Z</time>
      </trkpt>
      <trkpt lat="42.91719" lon="0.11752">
        <ele>1977</ele>
        <time>2017-02-18T11:56:51Z</time>
      </trkpt>
      <trkpt lat="42.91716" lon="0.11749">
        <ele>1975</ele>
        <time>2017-02-18T11:56:52Z</time>
      </trkpt>
      <trkpt lat="42.91713" lon="0.11753">
        <ele>1974</ele>
        <time>2017-02-18T11:56:54Z</time>
      </trkpt>
      <trkpt lat="42.9171" lon="0.11758">
        <ele>1972</ele>
        <time>2017-02-18T11:57:01Z</time>
      </trkpt>
      <trkpt lat="42.91706" lon="0.11758">
        <ele>1970</ele>
        <time>2017-02-18T11:57:02Z</time>
      </trkpt>
      <trkpt lat="42.91704" lon="0.11754">
        <ele>1969</ele>
        <time>2017-02-18T11:57:03Z</time>
      </trkpt>
      <trkpt lat="42.917" lon="0.11753">
        <ele>1967</ele>
        <time>2017-02-18T11:57:04Z</time>
      </trkpt>
      <trkpt lat="42.91698" lon="0.11758">
        <ele>1966</ele>
        <time>2017-02-18T11:57:05Z</time>
      </trkpt>
      <trkpt lat="42.91696" lon="0.11766">
        <ele>1965</ele>
        <time>2017-02-18T11:57:07Z</time>
      </trkpt>
      <trkpt lat="42.91694" lon="0.1177">
        <ele>1964</ele>
        <time>2017-02-18T11:57:08Z</time>
      </trkpt>
      <trkpt lat="42.91691" lon="0.11773">
        <ele>1963</ele>
        <time>2017-02-18T11:57:09Z</time>
      </trkpt>
      <trkpt lat="42.91687" lon="0.11773">
        <ele>1961</ele>
        <time>2017-02-18T11:57:10Z</time>
      </trkpt>
      <trkpt lat="42.9168" lon="0.11778">
        <ele>1959</ele>
        <time>2017-02-18T11:57:12Z</time>
      </trkpt>
      <trkpt lat="42.91673" lon="0.11788">
        <ele>1957</ele>
        <time>2017-02-18T11:57:15Z</time>
      </trkpt>
      <trkpt lat="42.91668" lon="0.1179">
        <ele>1954</ele>
        <time>2017-02-18T11:57:16Z</time>
      </trkpt>
      <trkpt lat="42.91663" lon="0.11788">
        <ele>1953</ele>
        <time>2017-02-18T11:57:17Z</time>
      </trkpt>
      <trkpt lat="42.91646" lon="0.11776">
        <ele>1951</ele>
        <time>2017-02-18T11:57:21Z</time>
      </trkpt>
      <trkpt lat="42.91642" lon="0.11776">
        <ele>1952</ele>
        <time>2017-02-18T11:57:37Z</time>
      </trkpt>
      <trkpt lat="42.91639" lon="0.11781">
        <ele>1952</ele>
        <time>2017-02-18T11:57:40Z</time>
      </trkpt>
      <trkpt lat="42.91635" lon="0.11785">
        <ele>1951</ele>
        <time>2017-02-18T11:57:42Z</time>
      </trkpt>
      <trkpt lat="42.91631" lon="0.11785">
        <ele>1949</ele>
        <time>2017-02-18T11:57:43Z</time>
      </trkpt>
      <trkpt lat="42.9163" lon="0.11789">
        <ele>1948</ele>
        <time>2017-02-18T11:57:44Z</time>
      </trkpt>
      <trkpt lat="42.91626" lon="0.11791">
        <ele>1946</ele>
        <time>2017-02-18T11:57:46Z</time>
      </trkpt>
      <trkpt lat="42.91621" lon="0.1179">
        <ele>1943</ele>
        <time>2017-02-18T11:57:48Z</time>
      </trkpt>
      <trkpt lat="42.91616" lon="0.11795">
        <ele>1940</ele>
        <time>2017-02-18T11:57:50Z</time>
      </trkpt>
      <trkpt lat="42.91613" lon="0.11793">
        <ele>1939</ele>
        <time>2017-02-18T11:57:51Z</time>
      </trkpt>
      <trkpt lat="42.91609" lon="0.11792">
        <ele>1936</ele>
        <time>2017-02-18T11:57:53Z</time>
      </trkpt>
      <trkpt lat="42.91605" lon="0.11798">
        <ele>1934</ele>
        <time>2017-02-18T11:57:55Z</time>
      </trkpt>
      <trkpt lat="42.91601" lon="0.11797">
        <ele>1932</ele>
        <time>2017-02-18T11:57:56Z</time>
      </trkpt>
      <trkpt lat="42.91598" lon="0.11795">
        <ele>1932</ele>
        <time>2017-02-18T11:57:57Z</time>
      </trkpt>
      <trkpt lat="42.91594" lon="0.11796">
        <ele>1930</ele>
        <time>2017-02-18T11:57:58Z</time>
      </trkpt>
      <trkpt lat="42.91593" lon="0.118">
        <ele>1929</ele>
        <time>2017-02-18T11:57:59Z</time>
      </trkpt>
      <trkpt lat="42.91592" lon="0.11806">
        <ele>1928</ele>
        <time>2017-02-18T11:58:01Z</time>
      </trkpt>
      <trkpt lat="42.91588" lon="0.11808">
        <ele>1927</ele>
        <time>2017-02-18T11:58:02Z</time>
      </trkpt>
      <trkpt lat="42.91586" lon="0.11805">
        <ele>1926</ele>
        <time>2017-02-18T11:58:03Z</time>
      </trkpt>
      <trkpt lat="42.91583" lon="0.11795">
        <ele>1924</ele>
        <time>2017-02-18T11:58:06Z</time>
      </trkpt>
      <trkpt lat="42.9158" lon="0.11796">
        <ele>1923</ele>
        <time>2017-02-18T11:58:07Z</time>
      </trkpt>
      <trkpt lat="42.91577" lon="0.11799">
        <ele>1922</ele>
        <time>2017-02-18T11:58:08Z</time>
      </trkpt>
      <trkpt lat="42.91574" lon="0.11808">
        <ele>1919</ele>
        <time>2017-02-18T11:58:11Z</time>
      </trkpt>
      <trkpt lat="42.91571" lon="0.11807">
        <ele>1918</ele>
        <time>2017-02-18T11:58:12Z</time>
      </trkpt>
      <trkpt lat="42.91569" lon="0.11803">
        <ele>1917</ele>
        <time>2017-02-18T11:58:13Z</time>
      </trkpt>
      <trkpt lat="42.91569" lon="0.11792">
        <ele>1914</ele>
        <time>2017-02-18T11:58:16Z</time>
      </trkpt>
      <trkpt lat="42.91566" lon="0.1179">
        <ele>1914</ele>
        <time>2017-02-18T11:58:17Z</time>
      </trkpt>
      <trkpt lat="42.91563" lon="0.11791">
        <ele>1912</ele>
        <time>2017-02-18T11:58:18Z</time>
      </trkpt>
      <trkpt lat="42.91561" lon="0.11794">
        <ele>1911</ele>
        <time>2017-02-18T11:58:19Z</time>
      </trkpt>
      <trkpt lat="42.91558" lon="0.11793">
        <ele>1910</ele>
        <time>2017-02-18T11:58:20Z</time>
      </trkpt>
      <trkpt lat="42.91556" lon="0.11789">
        <ele>1909</ele>
        <time>2017-02-18T11:58:21Z</time>
      </trkpt>
      <trkpt lat="42.91552" lon="0.11789">
        <ele>1906</ele>
        <time>2017-02-18T11:58:22Z</time>
      </trkpt>
      <trkpt lat="42.91549" lon="0.11792">
        <ele>1905</ele>
        <time>2017-02-18T11:58:23Z</time>
      </trkpt>
      <trkpt lat="42.91533" lon="0.11812">
        <ele>1900</ele>
        <time>2017-02-18T11:58:28Z</time>
      </trkpt>
      <trkpt lat="42.91513" lon="0.11822">
        <ele>1898</ele>
        <time>2017-02-18T11:58:37Z</time>
      </trkpt>
      <trkpt lat="42.91509" lon="0.11822">
        <ele>1898</ele>
        <time>2017-02-18T11:58:38Z</time>
      </trkpt>
      <trkpt lat="42.91502" lon="0.11815">
        <ele>1895</ele>
        <time>2017-02-18T11:58:40Z</time>
      </trkpt>
      <trkpt lat="42.91491" lon="0.11816">
        <ele>1892</ele>
        <time>2017-02-18T11:58:42Z</time>
      </trkpt>
      <trkpt lat="42.91489" lon="0.11811">
        <ele>1892</ele>
        <time>2017-02-18T11:58:43Z</time>
      </trkpt>
      <trkpt lat="42.91486" lon="0.11806">
        <ele>1891</ele>
        <time>2017-02-18T11:58:44Z</time>
      </trkpt>
      <trkpt lat="42.91483" lon="0.11806">
        <ele>1890</ele>
        <time>2017-02-18T11:58:46Z</time>
      </trkpt>
      <trkpt lat="42.91482" lon="0.11809">
        <ele>1893</ele>
        <time>2017-02-18T11:59:03Z</time>
      </trkpt>
      <trkpt lat="42.91477" lon="0.11816">
        <ele>1892</ele>
        <time>2017-02-18T11:59:06Z</time>
      </trkpt>
      <trkpt lat="42.91474" lon="0.11827">
        <ele>1890</ele>
        <time>2017-02-18T11:59:09Z</time>
      </trkpt>
      <trkpt lat="42.9147" lon="0.11828">
        <ele>1889</ele>
        <time>2017-02-18T11:59:10Z</time>
      </trkpt>
      <trkpt lat="42.91467" lon="0.11825">
        <ele>1888</ele>
        <time>2017-02-18T11:59:11Z</time>
      </trkpt>
      <trkpt lat="42.91465" lon="0.11821">
        <ele>1887</ele>
        <time>2017-02-18T11:59:12Z</time>
      </trkpt>
      <trkpt lat="42.91461" lon="0.1182">
        <ele>1886</ele>
        <time>2017-02-18T11:59:13Z</time>
      </trkpt>
      <trkpt lat="42.91458" lon="0.11823">
        <ele>1885</ele>
        <time>2017-02-18T11:59:14Z</time>
      </trkpt>
      <trkpt lat="42.91454" lon="0.11823">
        <ele>1884</ele>
        <time>2017-02-18T11:59:15Z</time>
      </trkpt>
      <trkpt lat="42.91451" lon="0.11819">
        <ele>1882</ele>
        <time>2017-02-18T11:59:16Z</time>
      </trkpt>
      <trkpt lat="42.91448" lon="0.11821">
        <ele>1882</ele>
        <time>2017-02-18T11:59:17Z</time>
      </trkpt>
      <trkpt lat="42.91445" lon="0.11825">
        <ele>1880</ele>
        <time>2017-02-18T11:59:18Z</time>
      </trkpt>
      <trkpt lat="42.91441" lon="0.11826">
        <ele>1879</ele>
        <time>2017-02-18T11:59:19Z</time>
      </trkpt>
      <trkpt lat="42.91437" lon="0.11822">
        <ele>1877</ele>
        <time>2017-02-18T11:59:20Z</time>
      </trkpt>
      <trkpt lat="42.91433" lon="0.11822">
        <ele>1876</ele>
        <time>2017-02-18T11:59:21Z</time>
      </trkpt>
      <trkpt lat="42.91429" lon="0.11826">
        <ele>1874</ele>
        <time>2017-02-18T11:59:22Z</time>
      </trkpt>
      <trkpt lat="42.91423" lon="0.11826">
        <ele>1872</ele>
        <time>2017-02-18T11:59:23Z</time>
      </trkpt>
      <trkpt lat="42.91419" lon="0.11821">
        <ele>1869</ele>
        <time>2017-02-18T11:59:24Z</time>
      </trkpt>
      <trkpt lat="42.91418" lon="0.11815">
        <ele>1868</ele>
        <time>2017-02-18T11:59:25Z</time>
      </trkpt>
      <trkpt lat="42.91416" lon="0.11806">
        <ele>1865</ele>
        <time>2017-02-18T11:59:27Z</time>
      </trkpt>
      <trkpt lat="42.91412" lon="0.11802">
        <ele>1863</ele>
        <time>2017-02-18T11:59:28Z</time>
      </trkpt>
      <trkpt lat="42.91408" lon="0.118">
        <ele>1863</ele>
        <time>2017-02-18T11:59:29Z</time>
      </trkpt>
      <trkpt lat="42.91403" lon="0.11802">
        <ele>1861</ele>
        <time>2017-02-18T11:59:30Z</time>
      </trkpt>
      <trkpt lat="42.91396" lon="0.11796">
        <ele>1860</ele>
        <time>2017-02-18T11:59:32Z</time>
      </trkpt>
      <trkpt lat="42.91393" lon="0.11793">
        <ele>1859</ele>
        <time>2017-02-18T11:59:33Z</time>
      </trkpt>
      <trkpt lat="42.91366" lon="0.11777">
        <ele>1854</ele>
        <time>2017-02-18T11:59:38Z</time>
      </trkpt>
      <trkpt lat="42.91359" lon="0.11772">
        <ele>1855</ele>
        <time>2017-02-18T11:59:40Z</time>
      </trkpt>
      <trkpt lat="42.91351" lon="0.11773">
        <ele>1853</ele>
        <time>2017-02-18T11:59:44Z</time>
      </trkpt>
      <trkpt lat="42.91334" lon="0.11773">
        <ele>1850</ele>
        <time>2017-02-18T11:59:49Z</time>
      </trkpt>
      <trkpt lat="42.9133" lon="0.1177">
        <ele>1849</ele>
        <time>2017-02-18T11:59:50Z</time>
      </trkpt>
      <trkpt lat="42.91321" lon="0.11762">
        <ele>1847</ele>
        <time>2017-02-18T11:59:53Z</time>
      </trkpt>
      <trkpt lat="42.91323" lon="0.11766">
        <ele>1848</ele>
        <time>2017-02-18T12:01:01Z</time>
      </trkpt>
      <trkpt lat="42.91322" lon="0.11766">
        <ele>1849</ele>
        <time>2017-02-18T12:01:29Z</time>
      </trkpt>
      <trkpt lat="42.91323" lon="0.11763">
        <ele>1860</ele>
        <time>2017-02-18T12:25:49Z</time>
      </trkpt>
      <trkpt lat="42.91323" lon="0.11763">
        <ele>1860</ele>
        <time>2017-02-18T12:25:50Z</time>
      </trkpt>
      <trkpt lat="42.91322" lon="0.11758">
        <ele>1860</ele>
        <time>2017-02-18T12:33:51Z</time>
      </trkpt>
      <trkpt lat="42.91319" lon="0.11761">
        <ele>1860</ele>
        <time>2017-02-18T12:33:57Z</time>
      </trkpt>
      <trkpt lat="42.91316" lon="0.11764">
        <ele>1860</ele>
        <time>2017-02-18T12:34:27Z</time>
      </trkpt>
      <trkpt lat="42.9131" lon="0.11773">
        <ele>1854</ele>
        <time>2017-02-18T12:34:33Z</time>
      </trkpt>
      <trkpt lat="42.91308" lon="0.11776">
        <ele>1853</ele>
        <time>2017-02-18T12:34:34Z</time>
      </trkpt>
      <trkpt lat="42.91305" lon="0.11777">
        <ele>1851</ele>
        <time>2017-02-18T12:34:35Z</time>
      </trkpt>
      <trkpt lat="42.91301" lon="0.11775">
        <ele>1850</ele>
        <time>2017-02-18T12:34:37Z</time>
      </trkpt>
      <trkpt lat="42.91294" lon="0.11777">
        <ele>1847</ele>
        <time>2017-02-18T12:35:15Z</time>
      </trkpt>
      <trkpt lat="42.91295" lon="0.11783">
        <ele>1846</ele>
        <time>2017-02-18T12:35:17Z</time>
      </trkpt>
      <trkpt lat="42.91291" lon="0.11787">
        <ele>1844</ele>
        <time>2017-02-18T12:35:19Z</time>
      </trkpt>
      <trkpt lat="42.91288" lon="0.11787">
        <ele>1843</ele>
        <time>2017-02-18T12:35:20Z</time>
      </trkpt>
      <trkpt lat="42.91287" lon="0.1179">
        <ele>1842</ele>
        <time>2017-02-18T12:35:21Z</time>
      </trkpt>
      <trkpt lat="42.91289" lon="0.11796">
        <ele>1840</ele>
        <time>2017-02-18T12:35:23Z</time>
      </trkpt>
      <trkpt lat="42.91284" lon="0.11798">
        <ele>1839</ele>
        <time>2017-02-18T12:35:25Z</time>
      </trkpt>
      <trkpt lat="42.91282" lon="0.11801">
        <ele>1837</ele>
        <time>2017-02-18T12:35:26Z</time>
      </trkpt>
      <trkpt lat="42.91282" lon="0.11806">
        <ele>1835</ele>
        <time>2017-02-18T12:35:27Z</time>
      </trkpt>
      <trkpt lat="42.91282" lon="0.11813">
        <ele>1833</ele>
        <time>2017-02-18T12:35:29Z</time>
      </trkpt>
      <trkpt lat="42.91278" lon="0.11813">
        <ele>1832</ele>
        <time>2017-02-18T12:35:30Z</time>
      </trkpt>
      <trkpt lat="42.91272" lon="0.11809">
        <ele>1829</ele>
        <time>2017-02-18T12:35:32Z</time>
      </trkpt>
      <trkpt lat="42.91269" lon="0.11807">
        <ele>1828</ele>
        <time>2017-02-18T12:35:33Z</time>
      </trkpt>
      <trkpt lat="42.91267" lon="0.11806">
        <ele>1827</ele>
        <time>2017-02-18T12:35:34Z</time>
      </trkpt>
      <trkpt lat="42.91268" lon="0.11813">
        <ele>1827</ele>
        <time>2017-02-18T12:35:35Z</time>
      </trkpt>
      <trkpt lat="42.91266" lon="0.11817">
        <ele>1825</ele>
        <time>2017-02-18T12:35:36Z</time>
      </trkpt>
      <trkpt lat="42.91262" lon="0.11817">
        <ele>1824</ele>
        <time>2017-02-18T12:35:37Z</time>
      </trkpt>
      <trkpt lat="42.91254" lon="0.11814">
        <ele>1820</ele>
        <time>2017-02-18T12:35:40Z</time>
      </trkpt>
      <trkpt lat="42.91253" lon="0.11818">
        <ele>1818</ele>
        <time>2017-02-18T12:35:41Z</time>
      </trkpt>
      <trkpt lat="42.91253" lon="0.11822">
        <ele>1817</ele>
        <time>2017-02-18T12:35:42Z</time>
      </trkpt>
      <trkpt lat="42.91255" lon="0.11831">
        <ele>1815</ele>
        <time>2017-02-18T12:35:44Z</time>
      </trkpt>
      <trkpt lat="42.91253" lon="0.11834">
        <ele>1814</ele>
        <time>2017-02-18T12:35:45Z</time>
      </trkpt>
      <trkpt lat="42.91249" lon="0.11832">
        <ele>1812</ele>
        <time>2017-02-18T12:35:46Z</time>
      </trkpt>
      <trkpt lat="42.91247" lon="0.1183">
        <ele>1812</ele>
        <time>2017-02-18T12:35:47Z</time>
      </trkpt>
      <trkpt lat="42.91242" lon="0.11833">
        <ele>1809</ele>
        <time>2017-02-18T12:35:49Z</time>
      </trkpt>
      <trkpt lat="42.91241" lon="0.11844">
        <ele>1807</ele>
        <time>2017-02-18T12:35:52Z</time>
      </trkpt>
      <trkpt lat="42.91238" lon="0.11843">
        <ele>1805</ele>
        <time>2017-02-18T12:35:53Z</time>
      </trkpt>
      <trkpt lat="42.91233" lon="0.11842">
        <ele>1804</ele>
        <time>2017-02-18T12:35:55Z</time>
      </trkpt>
      <trkpt lat="42.91233" lon="0.11846">
        <ele>1802</ele>
        <time>2017-02-18T12:35:56Z</time>
      </trkpt>
      <trkpt lat="42.91229" lon="0.11851">
        <ele>1800</ele>
        <time>2017-02-18T12:35:58Z</time>
      </trkpt>
      <trkpt lat="42.91225" lon="0.11848">
        <ele>1798</ele>
        <time>2017-02-18T12:35:59Z</time>
      </trkpt>
      <trkpt lat="42.91217" lon="0.11838">
        <ele>1794</ele>
        <time>2017-02-18T12:36:02Z</time>
      </trkpt>
      <trkpt lat="42.91205" lon="0.11827">
        <ele>1791</ele>
        <time>2017-02-18T12:36:06Z</time>
      </trkpt>
      <trkpt lat="42.91192" lon="0.11814">
        <ele>1786</ele>
        <time>2017-02-18T12:36:11Z</time>
      </trkpt>
      <trkpt lat="42.91188" lon="0.11814">
        <ele>1785</ele>
        <time>2017-02-18T12:36:24Z</time>
      </trkpt>
      <trkpt lat="42.91186" lon="0.11809">
        <ele>1783</ele>
        <time>2017-02-18T12:38:07Z</time>
      </trkpt>
      <trkpt lat="42.91182" lon="0.11806">
        <ele>1783</ele>
        <time>2017-02-18T12:38:09Z</time>
      </trkpt>
      <trkpt lat="42.91175" lon="0.11811">
        <ele>1778</ele>
        <time>2017-02-18T12:38:14Z</time>
      </trkpt>
      <trkpt lat="42.91172" lon="0.11809">
        <ele>1777</ele>
        <time>2017-02-18T12:38:15Z</time>
      </trkpt>
      <trkpt lat="42.9117" lon="0.11812">
        <ele>1775</ele>
        <time>2017-02-18T12:38:16Z</time>
      </trkpt>
      <trkpt lat="42.91168" lon="0.11818">
        <ele>1774</ele>
        <time>2017-02-18T12:38:18Z</time>
      </trkpt>
      <trkpt lat="42.9116" lon="0.11814">
        <ele>1770</ele>
        <time>2017-02-18T12:38:21Z</time>
      </trkpt>
      <trkpt lat="42.91158" lon="0.11821">
        <ele>1768</ele>
        <time>2017-02-18T12:38:23Z</time>
      </trkpt>
      <trkpt lat="42.91155" lon="0.11821">
        <ele>1767</ele>
        <time>2017-02-18T12:38:24Z</time>
      </trkpt>
      <trkpt lat="42.91152" lon="0.11823">
        <ele>1765</ele>
        <time>2017-02-18T12:38:25Z</time>
      </trkpt>
      <trkpt lat="42.91149" lon="0.11828">
        <ele>1763</ele>
        <time>2017-02-18T12:38:27Z</time>
      </trkpt>
      <trkpt lat="42.91141" lon="0.11825">
        <ele>1759</ele>
        <time>2017-02-18T12:38:30Z</time>
      </trkpt>
      <trkpt lat="42.91139" lon="0.11829">
        <ele>1758</ele>
        <time>2017-02-18T12:38:31Z</time>
      </trkpt>
      <trkpt lat="42.91136" lon="0.1183">
        <ele>1756</ele>
        <time>2017-02-18T12:38:32Z</time>
      </trkpt>
      <trkpt lat="42.91133" lon="0.11828">
        <ele>1755</ele>
        <time>2017-02-18T12:38:33Z</time>
      </trkpt>
      <trkpt lat="42.91129" lon="0.11829">
        <ele>1752</ele>
        <time>2017-02-18T12:38:35Z</time>
      </trkpt>
      <trkpt lat="42.91126" lon="0.11836">
        <ele>1750</ele>
        <time>2017-02-18T12:38:37Z</time>
      </trkpt>
      <trkpt lat="42.91123" lon="0.11835">
        <ele>1748</ele>
        <time>2017-02-18T12:38:38Z</time>
      </trkpt>
      <trkpt lat="42.91117" lon="0.11834">
        <ele>1747</ele>
        <time>2017-02-18T12:38:40Z</time>
      </trkpt>
      <trkpt lat="42.91117" lon="0.1184">
        <ele>1746</ele>
        <time>2017-02-18T12:38:41Z</time>
      </trkpt>
      <trkpt lat="42.91115" lon="0.11848">
        <ele>1744</ele>
        <time>2017-02-18T12:38:44Z</time>
      </trkpt>
      <trkpt lat="42.91112" lon="0.11849">
        <ele>1742</ele>
        <time>2017-02-18T12:38:45Z</time>
      </trkpt>
      <trkpt lat="42.91109" lon="0.11846">
        <ele>1741</ele>
        <time>2017-02-18T12:38:46Z</time>
      </trkpt>
      <trkpt lat="42.91106" lon="0.11845">
        <ele>1740</ele>
        <time>2017-02-18T12:38:47Z</time>
      </trkpt>
      <trkpt lat="42.91104" lon="0.11848">
        <ele>1739</ele>
        <time>2017-02-18T12:38:48Z</time>
      </trkpt>
      <trkpt lat="42.91101" lon="0.1185">
        <ele>1737</ele>
        <time>2017-02-18T12:38:49Z</time>
      </trkpt>
      <trkpt lat="42.91097" lon="0.11848">
        <ele>1736</ele>
        <time>2017-02-18T12:38:50Z</time>
      </trkpt>
      <trkpt lat="42.91094" lon="0.11845">
        <ele>1734</ele>
        <time>2017-02-18T12:38:51Z</time>
      </trkpt>
      <trkpt lat="42.91089" lon="0.11834">
        <ele>1733</ele>
        <time>2017-02-18T12:38:54Z</time>
      </trkpt>
      <trkpt lat="42.91081" lon="0.11819">
        <ele>1730</ele>
        <time>2017-02-18T12:38:58Z</time>
      </trkpt>
      <trkpt lat="42.91061" lon="0.11795">
        <ele>1723</ele>
        <time>2017-02-18T12:39:04Z</time>
      </trkpt>
      <trkpt lat="42.91058" lon="0.1179">
        <ele>1722</ele>
        <time>2017-02-18T12:39:05Z</time>
      </trkpt>
      <trkpt lat="42.91046" lon="0.11772">
        <ele>1717</ele>
        <time>2017-02-18T12:39:10Z</time>
      </trkpt>
      <trkpt lat="42.91043" lon="0.11774">
        <ele>1715</ele>
        <time>2017-02-18T12:39:12Z</time>
      </trkpt>
      <trkpt lat="42.91042" lon="0.11779">
        <ele>1713</ele>
        <time>2017-02-18T12:39:14Z</time>
      </trkpt>
      <trkpt lat="42.91039" lon="0.1178">
        <ele>1712</ele>
        <time>2017-02-18T12:39:15Z</time>
      </trkpt>
      <trkpt lat="42.91037" lon="0.11777">
        <ele>1711</ele>
        <time>2017-02-18T12:39:16Z</time>
      </trkpt>
      <trkpt lat="42.91033" lon="0.11775">
        <ele>1709</ele>
        <time>2017-02-18T12:39:18Z</time>
      </trkpt>
      <trkpt lat="42.9103" lon="0.11779">
        <ele>1706</ele>
        <time>2017-02-18T12:39:20Z</time>
      </trkpt>
      <trkpt lat="42.91026" lon="0.11777">
        <ele>1705</ele>
        <time>2017-02-18T12:39:21Z</time>
      </trkpt>
      <trkpt lat="42.91022" lon="0.11771">
        <ele>1702</ele>
        <time>2017-02-18T12:39:23Z</time>
      </trkpt>
      <trkpt lat="42.9102" lon="0.11768">
        <ele>1700</ele>
        <time>2017-02-18T12:39:25Z</time>
      </trkpt>
      <trkpt lat="42.91017" lon="0.11765">
        <ele>1700</ele>
        <time>2017-02-18T12:40:29Z</time>
      </trkpt>
      <trkpt lat="42.91014" lon="0.11766">
        <ele>1698</ele>
        <time>2017-02-18T12:40:30Z</time>
      </trkpt>
      <trkpt lat="42.91007" lon="0.11767">
        <ele>1696</ele>
        <time>2017-02-18T12:40:32Z</time>
      </trkpt>
      <trkpt lat="42.91001" lon="0.11761">
        <ele>1695</ele>
        <time>2017-02-18T12:40:34Z</time>
      </trkpt>
      <trkpt lat="42.90967" lon="0.11721">
        <ele>1684</ele>
        <time>2017-02-18T12:40:54Z</time>
      </trkpt>
      <trkpt lat="42.90952" lon="0.11697">
        <ele>1679</ele>
        <time>2017-02-18T12:41:06Z</time>
      </trkpt>
      <trkpt lat="42.90935" lon="0.11682">
        <ele>1676</ele>
        <time>2017-02-18T12:41:20Z</time>
      </trkpt>
      <trkpt lat="42.90911" lon="0.11671">
        <ele>1671</ele>
        <time>2017-02-18T12:41:27Z</time>
      </trkpt>
      <trkpt lat="42.90894" lon="0.11662">
        <ele>1668</ele>
        <time>2017-02-18T12:41:33Z</time>
      </trkpt>
      <trkpt lat="42.90892" lon="0.11656">
        <ele>1669</ele>
        <time>2017-02-18T12:41:49Z</time>
      </trkpt>
      <trkpt lat="42.90886" lon="0.11652">
        <ele>1667</ele>
        <time>2017-02-18T12:41:52Z</time>
      </trkpt>
      <trkpt lat="42.90886" lon="0.11647">
        <ele>1666</ele>
        <time>2017-02-18T12:41:54Z</time>
      </trkpt>
      <trkpt lat="42.90889" lon="0.11643">
        <ele>1664</ele>
        <time>2017-02-18T12:41:56Z</time>
      </trkpt>
      <trkpt lat="42.90889" lon="0.11638">
        <ele>1663</ele>
        <time>2017-02-18T12:41:58Z</time>
      </trkpt>
      <trkpt lat="42.90885" lon="0.11636">
        <ele>1661</ele>
        <time>2017-02-18T12:42:00Z</time>
      </trkpt>
      <trkpt lat="42.90883" lon="0.11634">
        <ele>1660</ele>
        <time>2017-02-18T12:42:01Z</time>
      </trkpt>
      <trkpt lat="42.90884" lon="0.11629">
        <ele>1658</ele>
        <time>2017-02-18T12:42:02Z</time>
      </trkpt>
      <trkpt lat="42.90887" lon="0.11622">
        <ele>1655</ele>
        <time>2017-02-18T12:42:04Z</time>
      </trkpt>
      <trkpt lat="42.90885" lon="0.11618">
        <ele>1654</ele>
        <time>2017-02-18T12:42:05Z</time>
      </trkpt>
      <trkpt lat="42.90877" lon="0.11615">
        <ele>1651</ele>
        <time>2017-02-18T12:42:08Z</time>
      </trkpt>
      <trkpt lat="42.90878" lon="0.1161">
        <ele>1649</ele>
        <time>2017-02-18T12:42:09Z</time>
      </trkpt>
      <trkpt lat="42.9088" lon="0.11605">
        <ele>1648</ele>
        <time>2017-02-18T12:42:10Z</time>
      </trkpt>
      <trkpt lat="42.90879" lon="0.11601">
        <ele>1647</ele>
        <time>2017-02-18T12:42:11Z</time>
      </trkpt>
      <trkpt lat="42.90876" lon="0.11599">
        <ele>1646</ele>
        <time>2017-02-18T12:42:12Z</time>
      </trkpt>
      <trkpt lat="42.9087" lon="0.11602">
        <ele>1644</ele>
        <time>2017-02-18T12:42:14Z</time>
      </trkpt>
      <trkpt lat="42.90867" lon="0.11599">
        <ele>1644</ele>
        <time>2017-02-18T12:42:15Z</time>
      </trkpt>
      <trkpt lat="42.90866" lon="0.11594">
        <ele>1642</ele>
        <time>2017-02-18T12:42:16Z</time>
      </trkpt>
      <trkpt lat="42.90867" lon="0.11588">
        <ele>1641</ele>
        <time>2017-02-18T12:42:17Z</time>
      </trkpt>
      <trkpt lat="42.90864" lon="0.11584">
        <ele>1640</ele>
        <time>2017-02-18T12:42:18Z</time>
      </trkpt>
      <trkpt lat="42.9086" lon="0.11584">
        <ele>1639</ele>
        <time>2017-02-18T12:42:19Z</time>
      </trkpt>
      <trkpt lat="42.90855" lon="0.1159">
        <ele>1638</ele>
        <time>2017-02-18T12:42:21Z</time>
      </trkpt>
      <trkpt lat="42.90851" lon="0.11592">
        <ele>1637</ele>
        <time>2017-02-18T12:42:22Z</time>
      </trkpt>
      <trkpt lat="42.90848" lon="0.1159">
        <ele>1636</ele>
        <time>2017-02-18T12:42:23Z</time>
      </trkpt>
      <trkpt lat="42.90843" lon="0.11582">
        <ele>1635</ele>
        <time>2017-02-18T12:42:25Z</time>
      </trkpt>
      <trkpt lat="42.90837" lon="0.1157">
        <ele>1632</ele>
        <time>2017-02-18T12:42:27Z</time>
      </trkpt>
      <trkpt lat="42.90836" lon="0.11558">
        <ele>1631</ele>
        <time>2017-02-18T12:42:29Z</time>
      </trkpt>
      <trkpt lat="42.90833" lon="0.11553">
        <ele>1630</ele>
        <time>2017-02-18T12:42:30Z</time>
      </trkpt>
      <trkpt lat="42.90829" lon="0.11552">
        <ele>1630</ele>
        <time>2017-02-18T12:42:31Z</time>
      </trkpt>
      <trkpt lat="42.90821" lon="0.11556">
        <ele>1629</ele>
        <time>2017-02-18T12:42:44Z</time>
      </trkpt>
      <trkpt lat="42.90807" lon="0.11563">
        <ele>1626</ele>
        <time>2017-02-18T12:42:47Z</time>
      </trkpt>
      <trkpt lat="42.90803" lon="0.11562">
        <ele>1625</ele>
        <time>2017-02-18T12:42:48Z</time>
      </trkpt>
      <trkpt lat="42.90799" lon="0.11559">
        <ele>1625</ele>
        <time>2017-02-18T12:42:49Z</time>
      </trkpt>
      <trkpt lat="42.90798" lon="0.11556">
        <ele>1624</ele>
        <time>2017-02-18T12:42:50Z</time>
      </trkpt>
      <trkpt lat="42.90798" lon="0.1155">
        <ele>1624</ele>
        <time>2017-02-18T12:42:52Z</time>
      </trkpt>
      <trkpt lat="42.90794" lon="0.11541">
        <ele>1623</ele>
        <time>2017-02-18T12:42:54Z</time>
      </trkpt>
      <trkpt lat="42.9079" lon="0.11535">
        <ele>1622</ele>
        <time>2017-02-18T12:42:55Z</time>
      </trkpt>
      <trkpt lat="42.90786" lon="0.11534">
        <ele>1621</ele>
        <time>2017-02-18T12:42:56Z</time>
      </trkpt>
      <trkpt lat="42.90781" lon="0.11535">
        <ele>1620</ele>
        <time>2017-02-18T12:42:57Z</time>
      </trkpt>
      <trkpt lat="42.90778" lon="0.11531">
        <ele>1619</ele>
        <time>2017-02-18T12:42:58Z</time>
      </trkpt>
      <trkpt lat="42.90776" lon="0.11527">
        <ele>1618</ele>
        <time>2017-02-18T12:42:59Z</time>
      </trkpt>
      <trkpt lat="42.90772" lon="0.11524">
        <ele>1617</ele>
        <time>2017-02-18T12:43:00Z</time>
      </trkpt>
      <trkpt lat="42.90763" lon="0.11524">
        <ele>1616</ele>
        <time>2017-02-18T12:43:02Z</time>
      </trkpt>
      <trkpt lat="42.90757" lon="0.11515">
        <ele>1614</ele>
        <time>2017-02-18T12:43:04Z</time>
      </trkpt>
      <trkpt lat="42.90753" lon="0.11514">
        <ele>1614</ele>
        <time>2017-02-18T12:43:05Z</time>
      </trkpt>
      <trkpt lat="42.90749" lon="0.11516">
        <ele>1613</ele>
        <time>2017-02-18T12:43:06Z</time>
      </trkpt>
      <trkpt lat="42.90745" lon="0.11516">
        <ele>1613</ele>
        <time>2017-02-18T12:43:07Z</time>
      </trkpt>
      <trkpt lat="42.90742" lon="0.11511">
        <ele>1612</ele>
        <time>2017-02-18T12:43:08Z</time>
      </trkpt>
      <trkpt lat="42.90741" lon="0.11506">
        <ele>1611</ele>
        <time>2017-02-18T12:43:09Z</time>
      </trkpt>
      <trkpt lat="42.9073" lon="0.11407">
        <ele>1602</ele>
        <time>2017-02-18T12:43:21Z</time>
      </trkpt>
      <trkpt lat="42.90724" lon="0.11346">
        <ele>1597</ele>
        <time>2017-02-18T12:43:28Z</time>
      </trkpt>
      <trkpt lat="42.90724" lon="0.11308">
        <ele>1594</ele>
        <time>2017-02-18T12:43:33Z</time>
      </trkpt>
      <trkpt lat="42.90725" lon="0.11275">
        <ele>1593</ele>
        <time>2017-02-18T12:43:37Z</time>
      </trkpt>
      <trkpt lat="42.90713" lon="0.11168">
        <ele>1584</ele>
        <time>2017-02-18T12:43:50Z</time>
      </trkpt>
      <trkpt lat="42.90651" lon="0.10935">
        <ele>1567</ele>
        <time>2017-02-18T12:44:18Z</time>
      </trkpt>
      <trkpt lat="42.90644" lon="0.10883">
        <ele>1563</ele>
        <time>2017-02-18T12:44:24Z</time>
      </trkpt>
      <trkpt lat="42.90639" lon="0.10842">
        <ele>1560</ele>
        <time>2017-02-18T12:44:29Z</time>
      </trkpt>
      <trkpt lat="42.90639" lon="0.10833">
        <ele>1560</ele>
        <time>2017-02-18T12:44:30Z</time>
      </trkpt>
      <trkpt lat="42.90631" lon="0.10694">
        <ele>1549</ele>
        <time>2017-02-18T12:44:46Z</time>
      </trkpt>
      <trkpt lat="42.90621" lon="0.10642">
        <ele>1546</ele>
        <time>2017-02-18T12:44:52Z</time>
      </trkpt>
      <trkpt lat="42.90615" lon="0.10591">
        <ele>1543</ele>
        <time>2017-02-18T12:44:57Z</time>
      </trkpt>
      <trkpt lat="42.90625" lon="0.10556">
        <ele>1541</ele>
        <time>2017-02-18T12:45:01Z</time>
      </trkpt>
      <trkpt lat="42.90629" lon="0.10495">
        <ele>1537</ele>
        <time>2017-02-18T12:45:08Z</time>
      </trkpt>
      <trkpt lat="42.90629" lon="0.10458">
        <ele>1534</ele>
        <time>2017-02-18T12:45:14Z</time>
      </trkpt>
      <trkpt lat="42.90626" lon="0.10456">
        <ele>1535</ele>
        <time>2017-02-18T12:45:19Z</time>
      </trkpt>
      <trkpt lat="42.90627" lon="0.10452">
        <ele>1537</ele>
        <time>2017-02-18T12:45:39Z</time>
      </trkpt>
      <trkpt lat="42.9063" lon="0.1043">
        <ele>1536</ele>
        <time>2017-02-18T12:45:45Z</time>
      </trkpt>
      <trkpt lat="42.90645" lon="0.10311">
        <ele>1528</ele>
        <time>2017-02-18T12:46:02Z</time>
      </trkpt>
      <trkpt lat="42.90647" lon="0.10304">
        <ele>1527</ele>
        <time>2017-02-18T12:46:03Z</time>
      </trkpt>
      <trkpt lat="42.90651" lon="0.10258">
        <ele>1523</ele>
        <time>2017-02-18T12:46:10Z</time>
      </trkpt>
      <trkpt lat="42.90655" lon="0.10204">
        <ele>1519</ele>
        <time>2017-02-18T12:46:19Z</time>
      </trkpt>
      <trkpt lat="42.9065" lon="0.102">
        <ele>1517</ele>
        <time>2017-02-18T12:46:20Z</time>
      </trkpt>
      <trkpt lat="42.90645" lon="0.10199">
        <ele>1517</ele>
        <time>2017-02-18T12:46:21Z</time>
      </trkpt>
      <trkpt lat="42.9064" lon="0.10202">
        <ele>1516</ele>
        <time>2017-02-18T12:46:22Z</time>
      </trkpt>
      <trkpt lat="42.90638" lon="0.10207">
        <ele>1515</ele>
        <time>2017-02-18T12:46:23Z</time>
      </trkpt>
      <trkpt lat="42.90636" lon="0.10219">
        <ele>1514</ele>
        <time>2017-02-18T12:46:25Z</time>
      </trkpt>
      <trkpt lat="42.90632" lon="0.10269">
        <ele>1512</ele>
        <time>2017-02-18T12:46:35Z</time>
      </trkpt>
      <trkpt lat="42.90625" lon="0.10292">
        <ele>1511</ele>
        <time>2017-02-18T12:46:40Z</time>
      </trkpt>
      <trkpt lat="42.90607" lon="0.10342">
        <ele>1507</ele>
        <time>2017-02-18T12:46:52Z</time>
      </trkpt>
      <trkpt lat="42.90598" lon="0.10371">
        <ele>1505</ele>
        <time>2017-02-18T12:47:00Z</time>
      </trkpt>
      <trkpt lat="42.90587" lon="0.10397">
        <ele>1504</ele>
        <time>2017-02-18T12:47:07Z</time>
      </trkpt>
      <trkpt lat="42.9056" lon="0.10444">
        <ele>1500</ele>
        <time>2017-02-18T12:47:20Z</time>
      </trkpt>
      <trkpt lat="42.9054" lon="0.10463">
        <ele>1498</ele>
        <time>2017-02-18T12:47:27Z</time>
      </trkpt>
      <trkpt lat="42.90537" lon="0.10461">
        <ele>1497</ele>
        <time>2017-02-18T12:47:28Z</time>
      </trkpt>
      <trkpt lat="42.90532" lon="0.10458">
        <ele>1497</ele>
        <time>2017-02-18T12:47:33Z</time>
      </trkpt>
      <trkpt lat="42.90532" lon="0.10453">
        <ele>1497</ele>
        <time>2017-02-18T12:47:34Z</time>
      </trkpt>
      <trkpt lat="42.90535" lon="0.10439">
        <ele>1495</ele>
        <time>2017-02-18T12:47:37Z</time>
      </trkpt>
      <trkpt lat="42.9054" lon="0.10424">
        <ele>1495</ele>
        <time>2017-02-18T12:47:51Z</time>
      </trkpt>
      <trkpt lat="42.90549" lon="0.10399">
        <ele>1493</ele>
        <time>2017-02-18T12:47:58Z</time>
      </trkpt>
      <trkpt lat="42.90551" lon="0.1039">
        <ele>1493</ele>
        <time>2017-02-18T12:48:01Z</time>
      </trkpt>
      <trkpt lat="42.90551" lon="0.10387">
        <ele>1492</ele>
        <time>2017-02-18T12:48:07Z</time>
      </trkpt>
      <trkpt lat="42.9055" lon="0.10384">
        <ele>1496</ele>
        <time>2017-02-18T12:48:47Z</time>
      </trkpt>
      <trkpt lat="42.9055" lon="0.10379">
        <ele>1496</ele>
        <time>2017-02-18T12:48:50Z</time>
      </trkpt>
      <trkpt lat="42.9055" lon="0.10375">
        <ele>1495</ele>
        <time>2017-02-18T12:48:53Z</time>
      </trkpt>
    </trkseg>
  </trk>
</gpx>